<?xml version="1.0" encoding="UTF-8" standalone="no" ?>
<gpx xmlns="http://www.topografix.com/GPX/1/1" xmlns:xsi="http://www.w3.org/2001/XMLSchema-instance" xsi:schemaLocation="http://www.topografix.com/GPX/1/1 http://www.topografix.com/GPX/1/1/gpx.xsd" version="1.1" creator="VisuGPX - https://www.visugpx.com">
  <metadata>
    <name>Croquoison, l\'arbre à mouches - 14km</name>
    <desc><![CDATA[Walkmeter Marche 4 août 2013 09:22:24]]></desc>
  </metadata>
  <trk>
    <name><![CDATA[Croquoison 14km]]></name>
    <trkseg>
      <trkpt lat="49.92213" lon="1.88655">
        <ele>86</ele>
        <time>2013-08-04T07:22:24Z</time>
      </trkpt>
      <trkpt lat="49.92213" lon="1.88657">
        <ele>85.2</ele>
        <time>2013-08-04T07:22:26Z</time>
      </trkpt>
      <trkpt lat="49.92211" lon="1.88678">
        <ele>81</ele>
        <time>2013-08-04T07:22:42Z</time>
      </trkpt>
      <trkpt lat="49.92211" lon="1.88699">
        <ele>79.5</ele>
        <time>2013-08-04T07:22:59Z</time>
      </trkpt>
      <trkpt lat="49.92214" lon="1.88722">
        <ele>79.5</ele>
        <time>2013-08-04T07:23:12Z</time>
      </trkpt>
      <trkpt lat="49.92213" lon="1.88744">
        <ele>80.1</ele>
        <time>2013-08-04T07:23:22Z</time>
      </trkpt>
      <trkpt lat="49.92218" lon="1.88765">
        <ele>80.7</ele>
        <time>2013-08-04T07:23:31Z</time>
      </trkpt>
      <trkpt lat="49.92224" lon="1.88785">
        <ele>81.7</ele>
        <time>2013-08-04T07:23:47Z</time>
      </trkpt>
      <trkpt lat="49.92227" lon="1.88806">
        <ele>82.4</ele>
        <time>2013-08-04T07:23:58Z</time>
      </trkpt>
      <trkpt lat="49.92229" lon="1.88827">
        <ele>82.9</ele>
        <time>2013-08-04T07:24:07Z</time>
      </trkpt>
      <trkpt lat="49.9224" lon="1.88841">
        <ele>85</ele>
        <time>2013-08-04T07:24:14Z</time>
      </trkpt>
      <trkpt lat="49.92249" lon="1.88856">
        <ele>87</ele>
        <time>2013-08-04T07:24:22Z</time>
      </trkpt>
      <trkpt lat="49.92258" lon="1.88872">
        <ele>89.2</ele>
        <time>2013-08-04T07:24:34Z</time>
      </trkpt>
      <trkpt lat="49.92268" lon="1.88891">
        <ele>89.8</ele>
        <time>2013-08-04T07:24:46Z</time>
      </trkpt>
      <trkpt lat="49.92277" lon="1.88912">
        <ele>90.3</ele>
        <time>2013-08-04T07:24:57Z</time>
      </trkpt>
      <trkpt lat="49.92285" lon="1.88928">
        <ele>90.8</ele>
        <time>2013-08-04T07:25:07Z</time>
      </trkpt>
      <trkpt lat="49.92295" lon="1.88946">
        <ele>90.6</ele>
        <time>2013-08-04T07:25:20Z</time>
      </trkpt>
      <trkpt lat="49.92303" lon="1.88965">
        <ele>90.2</ele>
        <time>2013-08-04T07:25:29Z</time>
      </trkpt>
      <trkpt lat="49.92307" lon="1.88986">
        <ele>89.7</ele>
        <time>2013-08-04T07:25:40Z</time>
      </trkpt>
      <trkpt lat="49.92312" lon="1.89005">
        <ele>89.3</ele>
        <time>2013-08-04T07:25:50Z</time>
      </trkpt>
      <trkpt lat="49.92322" lon="1.8902">
        <ele>88.9</ele>
        <time>2013-08-04T07:25:58Z</time>
      </trkpt>
      <trkpt lat="49.92332" lon="1.89037">
        <ele>88.4</ele>
        <time>2013-08-04T07:26:11Z</time>
      </trkpt>
      <trkpt lat="49.9234" lon="1.89054">
        <ele>88.1</ele>
        <time>2013-08-04T07:26:22Z</time>
      </trkpt>
      <trkpt lat="49.92348" lon="1.89072">
        <ele>88.5</ele>
        <time>2013-08-04T07:26:35Z</time>
      </trkpt>
      <trkpt lat="49.92357" lon="1.89091">
        <ele>88.9</ele>
        <time>2013-08-04T07:26:45Z</time>
      </trkpt>
      <trkpt lat="49.92365" lon="1.89102">
        <ele>89.2</ele>
        <time>2013-08-04T07:26:56Z</time>
      </trkpt>
      <trkpt lat="49.92368" lon="1.89123">
        <ele>89.4</ele>
        <time>2013-08-04T07:27:03Z</time>
      </trkpt>
      <trkpt lat="49.9237" lon="1.89148">
        <ele>89.7</ele>
        <time>2013-08-04T07:27:10Z</time>
      </trkpt>
      <trkpt lat="49.92371" lon="1.89175">
        <ele>89.7</ele>
        <time>2013-08-04T07:27:11Z</time>
      </trkpt>
      <trkpt lat="49.92375" lon="1.89179">
        <ele>89.7</ele>
        <time>2013-08-04T07:27:12Z</time>
      </trkpt>
      <trkpt lat="49.9238" lon="1.89173">
        <ele>89.9</ele>
        <time>2013-08-04T07:27:16Z</time>
      </trkpt>
      <trkpt lat="49.9238" lon="1.8917">
        <ele>89.9</ele>
        <time>2013-08-04T07:27:17Z</time>
      </trkpt>
      <trkpt lat="49.92389" lon="1.89187">
        <ele>88.5</ele>
        <time>2013-08-04T07:27:35Z</time>
      </trkpt>
      <trkpt lat="49.92396" lon="1.89206">
        <ele>87.1</ele>
        <time>2013-08-04T07:27:49Z</time>
      </trkpt>
      <trkpt lat="49.92404" lon="1.89224">
        <ele>89</ele>
        <time>2013-08-04T07:28:00Z</time>
      </trkpt>
      <trkpt lat="49.92412" lon="1.89246">
        <ele>92.4</ele>
        <time>2013-08-04T07:28:08Z</time>
      </trkpt>
      <trkpt lat="49.92421" lon="1.89262">
        <ele>95.4</ele>
        <time>2013-08-04T07:28:15Z</time>
      </trkpt>
      <trkpt lat="49.92431" lon="1.89278">
        <ele>99.7</ele>
        <time>2013-08-04T07:28:25Z</time>
      </trkpt>
      <trkpt lat="49.92441" lon="1.89292">
        <ele>99.7</ele>
        <time>2013-08-04T07:28:36Z</time>
      </trkpt>
      <trkpt lat="49.92449" lon="1.89311">
        <ele>98</ele>
        <time>2013-08-04T07:28:46Z</time>
      </trkpt>
      <trkpt lat="49.92453" lon="1.89333">
        <ele>104</ele>
        <time>2013-08-04T07:28:55Z</time>
      </trkpt>
      <trkpt lat="49.92457" lon="1.89353">
        <ele>101.3</ele>
        <time>2013-08-04T07:29:04Z</time>
      </trkpt>
      <trkpt lat="49.92465" lon="1.89371">
        <ele>98.9</ele>
        <time>2013-08-04T07:29:17Z</time>
      </trkpt>
      <trkpt lat="49.9247" lon="1.8939">
        <ele>97.8</ele>
        <time>2013-08-04T07:29:26Z</time>
      </trkpt>
      <trkpt lat="49.92478" lon="1.8941">
        <ele>95.8</ele>
        <time>2013-08-04T07:29:37Z</time>
      </trkpt>
      <trkpt lat="49.92483" lon="1.8943">
        <ele>94.5</ele>
        <time>2013-08-04T07:29:47Z</time>
      </trkpt>
      <trkpt lat="49.92489" lon="1.8945">
        <ele>93.8</ele>
        <time>2013-08-04T07:30:15Z</time>
      </trkpt>
      <trkpt lat="49.92494" lon="1.89472">
        <ele>94.5</ele>
        <time>2013-08-04T07:30:30Z</time>
      </trkpt>
      <trkpt lat="49.92499" lon="1.89492">
        <ele>96.4</ele>
        <time>2013-08-04T07:30:45Z</time>
      </trkpt>
      <trkpt lat="49.92507" lon="1.8951">
        <ele>96.3</ele>
        <time>2013-08-04T07:30:54Z</time>
      </trkpt>
      <trkpt lat="49.92514" lon="1.8953">
        <ele>95.1</ele>
        <time>2013-08-04T07:31:01Z</time>
      </trkpt>
      <trkpt lat="49.92516" lon="1.89554">
        <ele>94</ele>
        <time>2013-08-04T07:31:07Z</time>
      </trkpt>
      <trkpt lat="49.9252" lon="1.89575">
        <ele>93</ele>
        <time>2013-08-04T07:31:13Z</time>
      </trkpt>
      <trkpt lat="49.92526" lon="1.89596">
        <ele>90.8</ele>
        <time>2013-08-04T07:31:25Z</time>
      </trkpt>
      <trkpt lat="49.92533" lon="1.89616">
        <ele>89.2</ele>
        <time>2013-08-04T07:31:34Z</time>
      </trkpt>
      <trkpt lat="49.92537" lon="1.89636">
        <ele>88</ele>
        <time>2013-08-04T07:31:41Z</time>
      </trkpt>
      <trkpt lat="49.92541" lon="1.89658">
        <ele>86.6</ele>
        <time>2013-08-04T07:31:49Z</time>
      </trkpt>
      <trkpt lat="49.92548" lon="1.89671">
        <ele>85</ele>
        <time>2013-08-04T07:31:58Z</time>
      </trkpt>
      <trkpt lat="49.92552" lon="1.89691">
        <ele>82.8</ele>
        <time>2013-08-04T07:32:09Z</time>
      </trkpt>
      <trkpt lat="49.92562" lon="1.89706">
        <ele>84.1</ele>
        <time>2013-08-04T07:32:19Z</time>
      </trkpt>
      <trkpt lat="49.92568" lon="1.89726">
        <ele>85.5</ele>
        <time>2013-08-04T07:32:31Z</time>
      </trkpt>
      <trkpt lat="49.92576" lon="1.89744">
        <ele>86.6</ele>
        <time>2013-08-04T07:32:41Z</time>
      </trkpt>
      <trkpt lat="49.92582" lon="1.89758">
        <ele>87.4</ele>
        <time>2013-08-04T07:32:48Z</time>
      </trkpt>
      <trkpt lat="49.92581" lon="1.89785">
        <ele>87.8</ele>
        <time>2013-08-04T07:32:52Z</time>
      </trkpt>
      <trkpt lat="49.92592" lon="1.89799">
        <ele>87.5</ele>
        <time>2013-08-04T07:33:03Z</time>
      </trkpt>
      <trkpt lat="49.92601" lon="1.89814">
        <ele>89</ele>
        <time>2013-08-04T07:33:16Z</time>
      </trkpt>
      <trkpt lat="49.92614" lon="1.89823">
        <ele>82.6</ele>
        <time>2013-08-04T07:33:27Z</time>
      </trkpt>
      <trkpt lat="49.92623" lon="1.89842">
        <ele>79.5</ele>
        <time>2013-08-04T07:33:38Z</time>
      </trkpt>
      <trkpt lat="49.92633" lon="1.89856">
        <ele>86</ele>
        <time>2013-08-04T07:33:50Z</time>
      </trkpt>
      <trkpt lat="49.92642" lon="1.89866">
        <ele>85.3</ele>
        <time>2013-08-04T07:33:58Z</time>
      </trkpt>
      <trkpt lat="49.9264" lon="1.89887">
        <ele>83.6</ele>
        <time>2013-08-04T07:34:06Z</time>
      </trkpt>
      <trkpt lat="49.92645" lon="1.89907">
        <ele>81.2</ele>
        <time>2013-08-04T07:34:14Z</time>
      </trkpt>
      <trkpt lat="49.92651" lon="1.89927">
        <ele>76.4</ele>
        <time>2013-08-04T07:34:24Z</time>
      </trkpt>
      <trkpt lat="49.92657" lon="1.89947">
        <ele>74.5</ele>
        <time>2013-08-04T07:34:35Z</time>
      </trkpt>
      <trkpt lat="49.92664" lon="1.89966">
        <ele>73</ele>
        <time>2013-08-04T07:34:47Z</time>
      </trkpt>
      <trkpt lat="49.9267" lon="1.89985">
        <ele>69.6</ele>
        <time>2013-08-04T07:34:58Z</time>
      </trkpt>
      <trkpt lat="49.92677" lon="1.90003">
        <ele>72.3</ele>
        <time>2013-08-04T07:35:15Z</time>
      </trkpt>
      <trkpt lat="49.92688" lon="1.90019">
        <ele>74.5</ele>
        <time>2013-08-04T07:35:24Z</time>
      </trkpt>
      <trkpt lat="49.927" lon="1.9003">
        <ele>77</ele>
        <time>2013-08-04T07:35:33Z</time>
      </trkpt>
      <trkpt lat="49.9271" lon="1.90045">
        <ele>79.7</ele>
        <time>2013-08-04T07:35:42Z</time>
      </trkpt>
      <trkpt lat="49.92721" lon="1.90057">
        <ele>86.1</ele>
        <time>2013-08-04T07:35:55Z</time>
      </trkpt>
      <trkpt lat="49.92734" lon="1.90069">
        <ele>89</ele>
        <time>2013-08-04T07:36:04Z</time>
      </trkpt>
      <trkpt lat="49.92743" lon="1.90087">
        <ele>88.8</ele>
        <time>2013-08-04T07:36:13Z</time>
      </trkpt>
      <trkpt lat="49.92755" lon="1.90101">
        <ele>86.2</ele>
        <time>2013-08-04T07:36:25Z</time>
      </trkpt>
      <trkpt lat="49.92764" lon="1.90117">
        <ele>89.5</ele>
        <time>2013-08-04T07:36:37Z</time>
      </trkpt>
      <trkpt lat="49.92774" lon="1.90132">
        <ele>92</ele>
        <time>2013-08-04T07:36:46Z</time>
      </trkpt>
      <trkpt lat="49.92785" lon="1.90147">
        <ele>97.1</ele>
        <time>2013-08-04T07:36:56Z</time>
      </trkpt>
      <trkpt lat="49.92796" lon="1.90161">
        <ele>98.5</ele>
        <time>2013-08-04T07:37:06Z</time>
      </trkpt>
      <trkpt lat="49.92807" lon="1.90174">
        <ele>98</ele>
        <time>2013-08-04T07:37:19Z</time>
      </trkpt>
      <trkpt lat="49.92817" lon="1.9019">
        <ele>94.9</ele>
        <time>2013-08-04T07:37:29Z</time>
      </trkpt>
      <trkpt lat="49.92826" lon="1.90207">
        <ele>91.8</ele>
        <time>2013-08-04T07:37:39Z</time>
      </trkpt>
      <trkpt lat="49.92837" lon="1.90223">
        <ele>93.9</ele>
        <time>2013-08-04T07:37:49Z</time>
      </trkpt>
      <trkpt lat="49.92848" lon="1.90238">
        <ele>93.5</ele>
        <time>2013-08-04T07:37:55Z</time>
      </trkpt>
      <trkpt lat="49.92858" lon="1.90254">
        <ele>93.3</ele>
        <time>2013-08-04T07:38:00Z</time>
      </trkpt>
      <trkpt lat="49.92862" lon="1.9026">
        <ele>92.8</ele>
        <time>2013-08-04T07:38:08Z</time>
      </trkpt>
      <trkpt lat="49.92871" lon="1.90277">
        <ele>91.7</ele>
        <time>2013-08-04T07:38:27Z</time>
      </trkpt>
      <trkpt lat="49.92881" lon="1.90292">
        <ele>91.2</ele>
        <time>2013-08-04T07:38:37Z</time>
      </trkpt>
      <trkpt lat="49.92892" lon="1.90306">
        <ele>89.1</ele>
        <time>2013-08-04T07:38:50Z</time>
      </trkpt>
      <trkpt lat="49.92902" lon="1.9032">
        <ele>87.1</ele>
        <time>2013-08-04T07:39:01Z</time>
      </trkpt>
      <trkpt lat="49.92913" lon="1.90333">
        <ele>83.8</ele>
        <time>2013-08-04T07:39:13Z</time>
      </trkpt>
      <trkpt lat="49.92924" lon="1.90348">
        <ele>81.3</ele>
        <time>2013-08-04T07:39:23Z</time>
      </trkpt>
      <trkpt lat="49.92934" lon="1.90361">
        <ele>80.1</ele>
        <time>2013-08-04T07:39:31Z</time>
      </trkpt>
      <trkpt lat="49.9294" lon="1.90381">
        <ele>79.7</ele>
        <time>2013-08-04T07:39:44Z</time>
      </trkpt>
      <trkpt lat="49.92953" lon="1.90392">
        <ele>81.3</ele>
        <time>2013-08-04T07:39:56Z</time>
      </trkpt>
      <trkpt lat="49.92962" lon="1.90406">
        <ele>78.7</ele>
        <time>2013-08-04T07:40:05Z</time>
      </trkpt>
      <trkpt lat="49.92975" lon="1.90412">
        <ele>75</ele>
        <time>2013-08-04T07:40:18Z</time>
      </trkpt>
      <trkpt lat="49.92984" lon="1.90428">
        <ele>74.1</ele>
        <time>2013-08-04T07:40:26Z</time>
      </trkpt>
      <trkpt lat="49.9299" lon="1.90447">
        <ele>72</ele>
        <time>2013-08-04T07:40:34Z</time>
      </trkpt>
      <trkpt lat="49.92996" lon="1.90466">
        <ele>69.9</ele>
        <time>2013-08-04T07:40:45Z</time>
      </trkpt>
      <trkpt lat="49.93006" lon="1.90484">
        <ele>68.7</ele>
        <time>2013-08-04T07:40:56Z</time>
      </trkpt>
      <trkpt lat="49.93016" lon="1.90498">
        <ele>67.7</ele>
        <time>2013-08-04T07:41:06Z</time>
      </trkpt>
      <trkpt lat="49.93028" lon="1.90511">
        <ele>66.1</ele>
        <time>2013-08-04T07:41:17Z</time>
      </trkpt>
      <trkpt lat="49.93037" lon="1.90528">
        <ele>64.2</ele>
        <time>2013-08-04T07:41:27Z</time>
      </trkpt>
      <trkpt lat="49.93047" lon="1.9055">
        <ele>61.3</ele>
        <time>2013-08-04T07:41:34Z</time>
      </trkpt>
      <trkpt lat="49.93055" lon="1.90568">
        <ele>59.6</ele>
        <time>2013-08-04T07:41:49Z</time>
      </trkpt>
      <trkpt lat="49.93064" lon="1.90585">
        <ele>60.4</ele>
        <time>2013-08-04T07:42:01Z</time>
      </trkpt>
      <trkpt lat="49.93075" lon="1.90599">
        <ele>61.2</ele>
        <time>2013-08-04T07:42:14Z</time>
      </trkpt>
      <trkpt lat="49.93086" lon="1.90613">
        <ele>62.1</ele>
        <time>2013-08-04T07:42:26Z</time>
      </trkpt>
      <trkpt lat="49.93096" lon="1.90631">
        <ele>62.9</ele>
        <time>2013-08-04T07:42:36Z</time>
      </trkpt>
      <trkpt lat="49.93105" lon="1.90646">
        <ele>63.5</ele>
        <time>2013-08-04T07:42:45Z</time>
      </trkpt>
      <trkpt lat="49.93113" lon="1.90664">
        <ele>61</ele>
        <time>2013-08-04T07:42:56Z</time>
      </trkpt>
      <trkpt lat="49.9312" lon="1.90684">
        <ele>58.5</ele>
        <time>2013-08-04T07:43:06Z</time>
      </trkpt>
      <trkpt lat="49.93128" lon="1.90702">
        <ele>59.1</ele>
        <time>2013-08-04T07:43:16Z</time>
      </trkpt>
      <trkpt lat="49.93134" lon="1.90722">
        <ele>60.5</ele>
        <time>2013-08-04T07:43:26Z</time>
      </trkpt>
      <trkpt lat="49.93146" lon="1.90733">
        <ele>62</ele>
        <time>2013-08-04T07:43:36Z</time>
      </trkpt>
      <trkpt lat="49.93157" lon="1.90746">
        <ele>64.7</ele>
        <time>2013-08-04T07:43:47Z</time>
      </trkpt>
      <trkpt lat="49.9317" lon="1.90757">
        <ele>63.8</ele>
        <time>2013-08-04T07:44:01Z</time>
      </trkpt>
      <trkpt lat="49.9318" lon="1.90771">
        <ele>63</ele>
        <time>2013-08-04T07:44:11Z</time>
      </trkpt>
      <trkpt lat="49.93193" lon="1.9078">
        <ele>62</ele>
        <time>2013-08-04T07:44:22Z</time>
      </trkpt>
      <trkpt lat="49.93206" lon="1.9079">
        <ele>61.2</ele>
        <time>2013-08-04T07:44:31Z</time>
      </trkpt>
      <trkpt lat="49.93219" lon="1.90799">
        <ele>60.2</ele>
        <time>2013-08-04T07:44:42Z</time>
      </trkpt>
      <trkpt lat="49.93231" lon="1.9081">
        <ele>58.2</ele>
        <time>2013-08-04T07:44:49Z</time>
      </trkpt>
      <trkpt lat="49.9324" lon="1.90828">
        <ele>57.6</ele>
        <time>2013-08-04T07:44:59Z</time>
      </trkpt>
      <trkpt lat="49.9325" lon="1.90845">
        <ele>57</ele>
        <time>2013-08-04T07:45:11Z</time>
      </trkpt>
      <trkpt lat="49.9326" lon="1.90862">
        <ele>56.4</ele>
        <time>2013-08-04T07:45:22Z</time>
      </trkpt>
      <trkpt lat="49.93269" lon="1.9088">
        <ele>56.3</ele>
        <time>2013-08-04T07:45:32Z</time>
      </trkpt>
      <trkpt lat="49.9328" lon="1.90891">
        <ele>60.3</ele>
        <time>2013-08-04T07:45:43Z</time>
      </trkpt>
      <trkpt lat="49.93292" lon="1.90905">
        <ele>64.1</ele>
        <time>2013-08-04T07:45:51Z</time>
      </trkpt>
      <trkpt lat="49.93304" lon="1.90916">
        <ele>67.9</ele>
        <time>2013-08-04T07:46:01Z</time>
      </trkpt>
      <trkpt lat="49.93315" lon="1.90932">
        <ele>71.6</ele>
        <time>2013-08-04T07:46:12Z</time>
      </trkpt>
      <trkpt lat="49.93324" lon="1.90949">
        <ele>72.5</ele>
        <time>2013-08-04T07:46:22Z</time>
      </trkpt>
      <trkpt lat="49.93333" lon="1.90967">
        <ele>75</ele>
        <time>2013-08-04T07:46:32Z</time>
      </trkpt>
      <trkpt lat="49.93342" lon="1.90984">
        <ele>76</ele>
        <time>2013-08-04T07:46:42Z</time>
      </trkpt>
      <trkpt lat="49.93351" lon="1.91002">
        <ele>76</ele>
        <time>2013-08-04T07:46:52Z</time>
      </trkpt>
      <trkpt lat="49.9336" lon="1.9102">
        <ele>73.3</ele>
        <time>2013-08-04T07:47:02Z</time>
      </trkpt>
      <trkpt lat="49.93373" lon="1.91029">
        <ele>71.2</ele>
        <time>2013-08-04T07:47:14Z</time>
      </trkpt>
      <trkpt lat="49.9338" lon="1.91048">
        <ele>69.4</ele>
        <time>2013-08-04T07:47:24Z</time>
      </trkpt>
      <trkpt lat="49.93388" lon="1.91067">
        <ele>67.9</ele>
        <time>2013-08-04T07:47:33Z</time>
      </trkpt>
      <trkpt lat="49.93398" lon="1.91084">
        <ele>67.8</ele>
        <time>2013-08-04T07:47:44Z</time>
      </trkpt>
      <trkpt lat="49.93409" lon="1.91102">
        <ele>65.9</ele>
        <time>2013-08-04T07:47:52Z</time>
      </trkpt>
      <trkpt lat="49.93417" lon="1.91119">
        <ele>62.7</ele>
        <time>2013-08-04T07:48:04Z</time>
      </trkpt>
      <trkpt lat="49.93426" lon="1.91134">
        <ele>60.5</ele>
        <time>2013-08-04T07:48:13Z</time>
      </trkpt>
      <trkpt lat="49.93432" lon="1.91154">
        <ele>58.5</ele>
        <time>2013-08-04T07:48:23Z</time>
      </trkpt>
      <trkpt lat="49.93441" lon="1.91171">
        <ele>60</ele>
        <time>2013-08-04T07:48:35Z</time>
      </trkpt>
      <trkpt lat="49.9345" lon="1.91187">
        <ele>58.2</ele>
        <time>2013-08-04T07:48:46Z</time>
      </trkpt>
      <trkpt lat="49.9346" lon="1.91202">
        <ele>59.8</ele>
        <time>2013-08-04T07:48:57Z</time>
      </trkpt>
      <trkpt lat="49.93472" lon="1.91212">
        <ele>56</ele>
        <time>2013-08-04T07:49:08Z</time>
      </trkpt>
      <trkpt lat="49.93481" lon="1.91228">
        <ele>59.1</ele>
        <time>2013-08-04T07:49:17Z</time>
      </trkpt>
      <trkpt lat="49.93488" lon="1.91247">
        <ele>59.6</ele>
        <time>2013-08-04T07:49:27Z</time>
      </trkpt>
      <trkpt lat="49.93496" lon="1.91266">
        <ele>60.1</ele>
        <time>2013-08-04T07:49:36Z</time>
      </trkpt>
      <trkpt lat="49.93507" lon="1.91281">
        <ele>60.6</ele>
        <time>2013-08-04T07:49:47Z</time>
      </trkpt>
      <trkpt lat="49.93512" lon="1.91302">
        <ele>61.1</ele>
        <time>2013-08-04T07:49:58Z</time>
      </trkpt>
      <trkpt lat="49.93516" lon="1.91325">
        <ele>61.6</ele>
        <time>2013-08-04T07:50:08Z</time>
      </trkpt>
      <trkpt lat="49.93525" lon="1.91343">
        <ele>62.1</ele>
        <time>2013-08-04T07:50:18Z</time>
      </trkpt>
      <trkpt lat="49.93534" lon="1.91361">
        <ele>62.7</ele>
        <time>2013-08-04T07:50:29Z</time>
      </trkpt>
      <trkpt lat="49.93544" lon="1.91379">
        <ele>62.6</ele>
        <time>2013-08-04T07:50:39Z</time>
      </trkpt>
      <trkpt lat="49.93551" lon="1.91398">
        <ele>61.4</ele>
        <time>2013-08-04T07:50:47Z</time>
      </trkpt>
      <trkpt lat="49.93556" lon="1.91418">
        <ele>59.6</ele>
        <time>2013-08-04T07:50:59Z</time>
      </trkpt>
      <trkpt lat="49.93562" lon="1.91438">
        <ele>58.3</ele>
        <time>2013-08-04T07:51:08Z</time>
      </trkpt>
      <trkpt lat="49.93568" lon="1.91458">
        <ele>60.4</ele>
        <time>2013-08-04T07:51:18Z</time>
      </trkpt>
      <trkpt lat="49.93575" lon="1.91479">
        <ele>59.7</ele>
        <time>2013-08-04T07:51:30Z</time>
      </trkpt>
      <trkpt lat="49.93584" lon="1.91494">
        <ele>58.2</ele>
        <time>2013-08-04T07:51:42Z</time>
      </trkpt>
      <trkpt lat="49.93588" lon="1.91514">
        <ele>56.8</ele>
        <time>2013-08-04T07:51:53Z</time>
      </trkpt>
      <trkpt lat="49.93597" lon="1.91531">
        <ele>55.5</ele>
        <time>2013-08-04T07:52:04Z</time>
      </trkpt>
      <trkpt lat="49.93605" lon="1.9155">
        <ele>54.5</ele>
        <time>2013-08-04T07:52:13Z</time>
      </trkpt>
      <trkpt lat="49.93616" lon="1.91564">
        <ele>53.4</ele>
        <time>2013-08-04T07:52:23Z</time>
      </trkpt>
      <trkpt lat="49.93623" lon="1.91582">
        <ele>50.2</ele>
        <time>2013-08-04T07:52:35Z</time>
      </trkpt>
      <trkpt lat="49.93629" lon="1.91602">
        <ele>51</ele>
        <time>2013-08-04T07:52:45Z</time>
      </trkpt>
      <trkpt lat="49.9364" lon="1.91617">
        <ele>52</ele>
        <time>2013-08-04T07:52:56Z</time>
      </trkpt>
      <trkpt lat="49.93652" lon="1.91632">
        <ele>54.7</ele>
        <time>2013-08-04T07:53:07Z</time>
      </trkpt>
      <trkpt lat="49.93664" lon="1.91642">
        <ele>54.2</ele>
        <time>2013-08-04T07:53:18Z</time>
      </trkpt>
      <trkpt lat="49.93674" lon="1.91659">
        <ele>53.8</ele>
        <time>2013-08-04T07:53:26Z</time>
      </trkpt>
      <trkpt lat="49.93678" lon="1.91664">
        <ele>53.5</ele>
        <time>2013-08-04T07:53:31Z</time>
      </trkpt>
      <trkpt lat="49.93681" lon="1.91655">
        <ele>53.2</ele>
        <time>2013-08-04T07:53:36Z</time>
      </trkpt>
      <trkpt lat="49.9369" lon="1.91671">
        <ele>52.9</ele>
        <time>2013-08-04T07:53:42Z</time>
      </trkpt>
      <trkpt lat="49.93697" lon="1.9169">
        <ele>52.6</ele>
        <time>2013-08-04T07:53:48Z</time>
      </trkpt>
      <trkpt lat="49.93708" lon="1.91706">
        <ele>52</ele>
        <time>2013-08-04T07:54:00Z</time>
      </trkpt>
      <trkpt lat="49.93721" lon="1.91715">
        <ele>52.7</ele>
        <time>2013-08-04T07:54:12Z</time>
      </trkpt>
      <trkpt lat="49.9373" lon="1.91731">
        <ele>53.2</ele>
        <time>2013-08-04T07:54:20Z</time>
      </trkpt>
      <trkpt lat="49.93742" lon="1.91744">
        <ele>53.9</ele>
        <time>2013-08-04T07:54:32Z</time>
      </trkpt>
      <trkpt lat="49.93753" lon="1.91759">
        <ele>54.6</ele>
        <time>2013-08-04T07:54:43Z</time>
      </trkpt>
      <trkpt lat="49.93763" lon="1.91774">
        <ele>55.1</ele>
        <time>2013-08-04T07:54:52Z</time>
      </trkpt>
      <trkpt lat="49.93776" lon="1.91785">
        <ele>55.8</ele>
        <time>2013-08-04T07:55:04Z</time>
      </trkpt>
      <trkpt lat="49.93786" lon="1.91798">
        <ele>54.2</ele>
        <time>2013-08-04T07:55:13Z</time>
      </trkpt>
      <trkpt lat="49.93797" lon="1.91813">
        <ele>51.3</ele>
        <time>2013-08-04T07:55:23Z</time>
      </trkpt>
      <trkpt lat="49.93809" lon="1.91823">
        <ele>52.5</ele>
        <time>2013-08-04T07:55:32Z</time>
      </trkpt>
      <trkpt lat="49.9382" lon="1.91832">
        <ele>54.3</ele>
        <time>2013-08-04T07:55:42Z</time>
      </trkpt>
      <trkpt lat="49.93828" lon="1.91849">
        <ele>54.2</ele>
        <time>2013-08-04T07:55:51Z</time>
      </trkpt>
      <trkpt lat="49.93839" lon="1.91864">
        <ele>52.7</ele>
        <time>2013-08-04T07:56:00Z</time>
      </trkpt>
      <trkpt lat="49.93851" lon="1.9187">
        <ele>51.3</ele>
        <time>2013-08-04T07:56:08Z</time>
      </trkpt>
      <trkpt lat="49.93861" lon="1.91885">
        <ele>49.7</ele>
        <time>2013-08-04T07:56:21Z</time>
      </trkpt>
      <trkpt lat="49.93874" lon="1.91896">
        <ele>49.3</ele>
        <time>2013-08-04T07:56:29Z</time>
      </trkpt>
      <trkpt lat="49.93885" lon="1.91909">
        <ele>48.7</ele>
        <time>2013-08-04T07:56:41Z</time>
      </trkpt>
      <trkpt lat="49.93897" lon="1.91921">
        <ele>48.2</ele>
        <time>2013-08-04T07:56:51Z</time>
      </trkpt>
      <trkpt lat="49.93909" lon="1.91933">
        <ele>47</ele>
        <time>2013-08-04T07:57:00Z</time>
      </trkpt>
      <trkpt lat="49.93919" lon="1.91947">
        <ele>45</ele>
        <time>2013-08-04T07:57:11Z</time>
      </trkpt>
      <trkpt lat="49.93929" lon="1.91962">
        <ele>41.8</ele>
        <time>2013-08-04T07:57:22Z</time>
      </trkpt>
      <trkpt lat="49.9394" lon="1.91977">
        <ele>38.8</ele>
        <time>2013-08-04T07:57:34Z</time>
      </trkpt>
      <trkpt lat="49.93949" lon="1.91994">
        <ele>36.1</ele>
        <time>2013-08-04T07:57:45Z</time>
      </trkpt>
      <trkpt lat="49.93958" lon="1.9201">
        <ele>33</ele>
        <time>2013-08-04T07:57:55Z</time>
      </trkpt>
      <trkpt lat="49.93967" lon="1.92027">
        <ele>28</ele>
        <time>2013-08-04T07:58:06Z</time>
      </trkpt>
      <trkpt lat="49.93975" lon="1.92046">
        <ele>30.5</ele>
        <time>2013-08-04T07:58:15Z</time>
      </trkpt>
      <trkpt lat="49.93981" lon="1.92065">
        <ele>32.1</ele>
        <time>2013-08-04T07:58:26Z</time>
      </trkpt>
      <trkpt lat="49.93992" lon="1.92082">
        <ele>34.4</ele>
        <time>2013-08-04T07:58:38Z</time>
      </trkpt>
      <trkpt lat="49.93999" lon="1.92101">
        <ele>36.9</ele>
        <time>2013-08-04T07:58:49Z</time>
      </trkpt>
      <trkpt lat="49.94009" lon="1.92118">
        <ele>38.8</ele>
        <time>2013-08-04T07:59:00Z</time>
      </trkpt>
      <trkpt lat="49.9402" lon="1.92132">
        <ele>42.3</ele>
        <time>2013-08-04T07:59:16Z</time>
      </trkpt>
      <trkpt lat="49.94032" lon="1.92146">
        <ele>44</ele>
        <time>2013-08-04T07:59:23Z</time>
      </trkpt>
      <trkpt lat="49.94043" lon="1.92158">
        <ele>38.4</ele>
        <time>2013-08-04T07:59:33Z</time>
      </trkpt>
      <trkpt lat="49.94063" lon="1.92185">
        <ele>34.3</ele>
        <time>2013-08-04T07:59:48Z</time>
      </trkpt>
      <trkpt lat="49.94063" lon="1.92185">
        <ele>34.3</ele>
        <time>2013-08-04T08:00:26Z</time>
      </trkpt>
      <trkpt lat="49.94071" lon="1.92199">
        <ele>31.4</ele>
        <time>2013-08-04T08:00:26Z</time>
      </trkpt>
      <trkpt lat="49.94082" lon="1.92214">
        <ele>31.5</ele>
        <time>2013-08-04T08:00:35Z</time>
      </trkpt>
      <trkpt lat="49.94094" lon="1.92227">
        <ele>29.5</ele>
        <time>2013-08-04T08:00:46Z</time>
      </trkpt>
      <trkpt lat="49.94104" lon="1.92245">
        <ele>30.9</ele>
        <time>2013-08-04T08:00:56Z</time>
      </trkpt>
      <trkpt lat="49.94114" lon="1.92263">
        <ele>32.6</ele>
        <time>2013-08-04T08:01:06Z</time>
      </trkpt>
      <trkpt lat="49.94121" lon="1.92281">
        <ele>36</ele>
        <time>2013-08-04T08:01:17Z</time>
      </trkpt>
      <trkpt lat="49.94132" lon="1.92296">
        <ele>35</ele>
        <time>2013-08-04T08:01:26Z</time>
      </trkpt>
      <trkpt lat="49.94142" lon="1.92312">
        <ele>33.2</ele>
        <time>2013-08-04T08:01:35Z</time>
      </trkpt>
      <trkpt lat="49.94153" lon="1.92324">
        <ele>34</ele>
        <time>2013-08-04T08:01:45Z</time>
      </trkpt>
      <trkpt lat="49.94159" lon="1.92343">
        <ele>34.7</ele>
        <time>2013-08-04T08:01:54Z</time>
      </trkpt>
      <trkpt lat="49.94172" lon="1.92355">
        <ele>35.6</ele>
        <time>2013-08-04T08:02:07Z</time>
      </trkpt>
      <trkpt lat="49.94183" lon="1.9237">
        <ele>35.3</ele>
        <time>2013-08-04T08:02:17Z</time>
      </trkpt>
      <trkpt lat="49.94193" lon="1.92384">
        <ele>33.8</ele>
        <time>2013-08-04T08:02:28Z</time>
      </trkpt>
      <trkpt lat="49.94202" lon="1.92403">
        <ele>31.7</ele>
        <time>2013-08-04T08:02:39Z</time>
      </trkpt>
      <trkpt lat="49.94202" lon="1.92421">
        <ele>30.6</ele>
        <time>2013-08-04T08:02:47Z</time>
      </trkpt>
      <trkpt lat="49.94204" lon="1.92443">
        <ele>34.9</ele>
        <time>2013-08-04T08:03:13Z</time>
      </trkpt>
      <trkpt lat="49.94206" lon="1.92465">
        <ele>35.5</ele>
        <time>2013-08-04T08:03:23Z</time>
      </trkpt>
      <trkpt lat="49.94211" lon="1.92486">
        <ele>36.1</ele>
        <time>2013-08-04T08:03:33Z</time>
      </trkpt>
      <trkpt lat="49.94212" lon="1.92508">
        <ele>36.7</ele>
        <time>2013-08-04T08:03:43Z</time>
      </trkpt>
      <trkpt lat="49.94213" lon="1.9253">
        <ele>37.2</ele>
        <time>2013-08-04T08:03:51Z</time>
      </trkpt>
      <trkpt lat="49.94217" lon="1.92551">
        <ele>37.9</ele>
        <time>2013-08-04T08:04:00Z</time>
      </trkpt>
      <trkpt lat="49.94226" lon="1.92568">
        <ele>38.8</ele>
        <time>2013-08-04T08:04:12Z</time>
      </trkpt>
      <trkpt lat="49.94236" lon="1.92583">
        <ele>39.8</ele>
        <time>2013-08-04T08:04:24Z</time>
      </trkpt>
      <trkpt lat="49.94244" lon="1.92603">
        <ele>39.5</ele>
        <time>2013-08-04T08:04:36Z</time>
      </trkpt>
      <trkpt lat="49.94253" lon="1.92619">
        <ele>39</ele>
        <time>2013-08-04T08:04:47Z</time>
      </trkpt>
      <trkpt lat="49.94261" lon="1.92636">
        <ele>38.5</ele>
        <time>2013-08-04T08:04:56Z</time>
      </trkpt>
      <trkpt lat="49.94272" lon="1.92647">
        <ele>37.8</ele>
        <time>2013-08-04T08:05:11Z</time>
      </trkpt>
      <trkpt lat="49.9428" lon="1.92664">
        <ele>37.3</ele>
        <time>2013-08-04T08:05:21Z</time>
      </trkpt>
      <trkpt lat="49.94292" lon="1.92679">
        <ele>38.5</ele>
        <time>2013-08-04T08:05:32Z</time>
      </trkpt>
      <trkpt lat="49.94302" lon="1.92694">
        <ele>39.3</ele>
        <time>2013-08-04T08:05:42Z</time>
      </trkpt>
      <trkpt lat="49.94316" lon="1.92701">
        <ele>37.7</ele>
        <time>2013-08-04T08:05:51Z</time>
      </trkpt>
      <trkpt lat="49.94327" lon="1.92714">
        <ele>39.8</ele>
        <time>2013-08-04T08:06:02Z</time>
      </trkpt>
      <trkpt lat="49.94336" lon="1.92731">
        <ele>40.7</ele>
        <time>2013-08-04T08:06:13Z</time>
      </trkpt>
      <trkpt lat="49.94346" lon="1.92746">
        <ele>40.3</ele>
        <time>2013-08-04T08:06:22Z</time>
      </trkpt>
      <trkpt lat="49.94352" lon="1.92767">
        <ele>39.9</ele>
        <time>2013-08-04T08:06:33Z</time>
      </trkpt>
      <trkpt lat="49.94363" lon="1.92781">
        <ele>39.5</ele>
        <time>2013-08-04T08:06:44Z</time>
      </trkpt>
      <trkpt lat="49.9437" lon="1.92787">
        <ele>39.3</ele>
        <time>2013-08-04T08:06:50Z</time>
      </trkpt>
      <trkpt lat="49.94376" lon="1.9281">
        <ele>39</ele>
        <time>2013-08-04T08:06:58Z</time>
      </trkpt>
      <trkpt lat="49.94382" lon="1.92831">
        <ele>38.5</ele>
        <time>2013-08-04T08:07:09Z</time>
      </trkpt>
      <trkpt lat="49.94389" lon="1.92849">
        <ele>38.1</ele>
        <time>2013-08-04T08:07:21Z</time>
      </trkpt>
      <trkpt lat="49.94388" lon="1.92871">
        <ele>33.8</ele>
        <time>2013-08-04T08:07:37Z</time>
      </trkpt>
      <trkpt lat="49.94377" lon="1.92884">
        <ele>36</ele>
        <time>2013-08-04T08:07:54Z</time>
      </trkpt>
      <trkpt lat="49.94366" lon="1.92897">
        <ele>38.3</ele>
        <time>2013-08-04T08:08:01Z</time>
      </trkpt>
      <trkpt lat="49.94355" lon="1.92909">
        <ele>40.5</ele>
        <time>2013-08-04T08:08:10Z</time>
      </trkpt>
      <trkpt lat="49.94348" lon="1.92929">
        <ele>43.3</ele>
        <time>2013-08-04T08:08:23Z</time>
      </trkpt>
      <trkpt lat="49.94343" lon="1.92949">
        <ele>46</ele>
        <time>2013-08-04T08:08:32Z</time>
      </trkpt>
      <trkpt lat="49.94329" lon="1.92973">
        <ele>45</ele>
        <time>2013-08-04T08:08:36Z</time>
      </trkpt>
      <trkpt lat="49.94336" lon="1.92979">
        <ele>43</ele>
        <time>2013-08-04T08:08:44Z</time>
      </trkpt>
      <trkpt lat="49.94332" lon="1.93001">
        <ele>42</ele>
        <time>2013-08-04T08:08:57Z</time>
      </trkpt>
      <trkpt lat="49.94327" lon="1.93021">
        <ele>39.6</ele>
        <time>2013-08-04T08:09:08Z</time>
      </trkpt>
      <trkpt lat="49.94318" lon="1.93037">
        <ele>37.5</ele>
        <time>2013-08-04T08:09:20Z</time>
      </trkpt>
      <trkpt lat="49.94308" lon="1.93052">
        <ele>34.1</ele>
        <time>2013-08-04T08:09:33Z</time>
      </trkpt>
      <trkpt lat="49.94298" lon="1.93071">
        <ele>32.1</ele>
        <time>2013-08-04T08:09:43Z</time>
      </trkpt>
      <trkpt lat="49.94296" lon="1.93092">
        <ele>35</ele>
        <time>2013-08-04T08:09:52Z</time>
      </trkpt>
      <trkpt lat="49.94289" lon="1.93111">
        <ele>36.2</ele>
        <time>2013-08-04T08:10:03Z</time>
      </trkpt>
      <trkpt lat="49.94276" lon="1.93119">
        <ele>38.8</ele>
        <time>2013-08-04T08:10:13Z</time>
      </trkpt>
      <trkpt lat="49.94262" lon="1.93119">
        <ele>40.1</ele>
        <time>2013-08-04T08:10:28Z</time>
      </trkpt>
      <trkpt lat="49.94248" lon="1.93126">
        <ele>40.7</ele>
        <time>2013-08-04T08:10:36Z</time>
      </trkpt>
      <trkpt lat="49.94222" lon="1.93137">
        <ele>40.6</ele>
        <time>2013-08-04T08:10:46Z</time>
      </trkpt>
      <trkpt lat="49.94222" lon="1.93137">
        <ele>40.6</ele>
        <time>2013-08-04T08:12:10Z</time>
      </trkpt>
      <trkpt lat="49.94208" lon="1.9314">
        <ele>38.6</ele>
        <time>2013-08-04T08:12:16Z</time>
      </trkpt>
      <trkpt lat="49.94196" lon="1.93152">
        <ele>37.3</ele>
        <time>2013-08-04T08:12:30Z</time>
      </trkpt>
      <trkpt lat="49.94192" lon="1.93174">
        <ele>38.8</ele>
        <time>2013-08-04T08:12:41Z</time>
      </trkpt>
      <trkpt lat="49.94184" lon="1.93194">
        <ele>38.8</ele>
        <time>2013-08-04T08:12:55Z</time>
      </trkpt>
      <trkpt lat="49.94182" lon="1.93216">
        <ele>38</ele>
        <time>2013-08-04T08:13:09Z</time>
      </trkpt>
      <trkpt lat="49.94178" lon="1.9324">
        <ele>39.2</ele>
        <time>2013-08-04T08:13:18Z</time>
      </trkpt>
      <trkpt lat="49.94173" lon="1.93261">
        <ele>39.6</ele>
        <time>2013-08-04T08:13:27Z</time>
      </trkpt>
      <trkpt lat="49.94165" lon="1.93281">
        <ele>38</ele>
        <time>2013-08-04T08:13:41Z</time>
      </trkpt>
      <trkpt lat="49.94157" lon="1.93298">
        <ele>37.2</ele>
        <time>2013-08-04T08:13:48Z</time>
      </trkpt>
      <trkpt lat="49.94149" lon="1.93318">
        <ele>36.3</ele>
        <time>2013-08-04T08:13:55Z</time>
      </trkpt>
      <trkpt lat="49.94149" lon="1.9334">
        <ele>37.2</ele>
        <time>2013-08-04T08:14:06Z</time>
      </trkpt>
      <trkpt lat="49.94137" lon="1.93352">
        <ele>38.8</ele>
        <time>2013-08-04T08:14:17Z</time>
      </trkpt>
      <trkpt lat="49.94124" lon="1.93361">
        <ele>38.3</ele>
        <time>2013-08-04T08:14:30Z</time>
      </trkpt>
      <trkpt lat="49.94111" lon="1.9337">
        <ele>37.6</ele>
        <time>2013-08-04T08:14:43Z</time>
      </trkpt>
      <trkpt lat="49.94102" lon="1.93387">
        <ele>36.9</ele>
        <time>2013-08-04T08:14:55Z</time>
      </trkpt>
      <trkpt lat="49.94091" lon="1.934">
        <ele>36.1</ele>
        <time>2013-08-04T08:15:08Z</time>
      </trkpt>
      <trkpt lat="49.94083" lon="1.93419">
        <ele>37</ele>
        <time>2013-08-04T08:15:17Z</time>
      </trkpt>
      <trkpt lat="49.94075" lon="1.93433">
        <ele>39.9</ele>
        <time>2013-08-04T08:15:40Z</time>
      </trkpt>
      <trkpt lat="49.94072" lon="1.93454">
        <ele>39.2</ele>
        <time>2013-08-04T08:15:51Z</time>
      </trkpt>
      <trkpt lat="49.94068" lon="1.93475">
        <ele>38.5</ele>
        <time>2013-08-04T08:16:00Z</time>
      </trkpt>
      <trkpt lat="49.94063" lon="1.93496">
        <ele>37.8</ele>
        <time>2013-08-04T08:16:11Z</time>
      </trkpt>
      <trkpt lat="49.94056" lon="1.93515">
        <ele>37</ele>
        <time>2013-08-04T08:16:22Z</time>
      </trkpt>
      <trkpt lat="49.94052" lon="1.93537">
        <ele>36.3</ele>
        <time>2013-08-04T08:16:39Z</time>
      </trkpt>
      <trkpt lat="49.94051" lon="1.93558">
        <ele>35.9</ele>
        <time>2013-08-04T08:16:47Z</time>
      </trkpt>
      <trkpt lat="49.94049" lon="1.93579">
        <ele>35.5</ele>
        <time>2013-08-04T08:16:55Z</time>
      </trkpt>
      <trkpt lat="49.94047" lon="1.93601">
        <ele>35</ele>
        <time>2013-08-04T08:17:07Z</time>
      </trkpt>
      <trkpt lat="49.9404" lon="1.93622">
        <ele>34.4</ele>
        <time>2013-08-04T08:17:21Z</time>
      </trkpt>
      <trkpt lat="49.94033" lon="1.93641">
        <ele>34.5</ele>
        <time>2013-08-04T08:17:36Z</time>
      </trkpt>
      <trkpt lat="49.94008" lon="1.93679">
        <ele>41.9</ele>
        <time>2013-08-04T08:17:50Z</time>
      </trkpt>
      <trkpt lat="49.94008" lon="1.93679">
        <ele>41.9</ele>
        <time>2013-08-04T08:18:30Z</time>
      </trkpt>
      <trkpt lat="49.93993" lon="1.93702">
        <ele>48.5</ele>
        <time>2013-08-04T08:18:40Z</time>
      </trkpt>
      <trkpt lat="49.9398" lon="1.93709">
        <ele>48</ele>
        <time>2013-08-04T08:18:52Z</time>
      </trkpt>
      <trkpt lat="49.93967" lon="1.93721">
        <ele>48</ele>
        <time>2013-08-04T08:19:01Z</time>
      </trkpt>
      <trkpt lat="49.93953" lon="1.93721">
        <ele>48</ele>
        <time>2013-08-04T08:19:13Z</time>
      </trkpt>
      <trkpt lat="49.93941" lon="1.9373">
        <ele>48</ele>
        <time>2013-08-04T08:19:21Z</time>
      </trkpt>
      <trkpt lat="49.93929" lon="1.93741">
        <ele>47.8</ele>
        <time>2013-08-04T08:19:33Z</time>
      </trkpt>
      <trkpt lat="49.93918" lon="1.93755">
        <ele>44.9</ele>
        <time>2013-08-04T08:19:49Z</time>
      </trkpt>
      <trkpt lat="49.93909" lon="1.93771">
        <ele>43.6</ele>
        <time>2013-08-04T08:19:58Z</time>
      </trkpt>
      <trkpt lat="49.93897" lon="1.93782">
        <ele>42.3</ele>
        <time>2013-08-04T08:20:08Z</time>
      </trkpt>
      <trkpt lat="49.93887" lon="1.93797">
        <ele>44.5</ele>
        <time>2013-08-04T08:20:20Z</time>
      </trkpt>
      <trkpt lat="49.93876" lon="1.93811">
        <ele>49.1</ele>
        <time>2013-08-04T08:20:31Z</time>
      </trkpt>
      <trkpt lat="49.93865" lon="1.93823">
        <ele>48.6</ele>
        <time>2013-08-04T08:20:39Z</time>
      </trkpt>
      <trkpt lat="49.93855" lon="1.93839">
        <ele>46.2</ele>
        <time>2013-08-04T08:20:49Z</time>
      </trkpt>
      <trkpt lat="49.93841" lon="1.93842">
        <ele>45</ele>
        <time>2013-08-04T08:21:01Z</time>
      </trkpt>
      <trkpt lat="49.93828" lon="1.93847">
        <ele>44.1</ele>
        <time>2013-08-04T08:21:12Z</time>
      </trkpt>
      <trkpt lat="49.93814" lon="1.93854">
        <ele>43</ele>
        <time>2013-08-04T08:21:24Z</time>
      </trkpt>
      <trkpt lat="49.93802" lon="1.93866">
        <ele>43.4</ele>
        <time>2013-08-04T08:21:36Z</time>
      </trkpt>
      <trkpt lat="49.9379" lon="1.93876">
        <ele>44.2</ele>
        <time>2013-08-04T08:21:46Z</time>
      </trkpt>
      <trkpt lat="49.93777" lon="1.93882">
        <ele>42.7</ele>
        <time>2013-08-04T08:21:57Z</time>
      </trkpt>
      <trkpt lat="49.93764" lon="1.93894">
        <ele>41.6</ele>
        <time>2013-08-04T08:22:08Z</time>
      </trkpt>
      <trkpt lat="49.93754" lon="1.93909">
        <ele>40.8</ele>
        <time>2013-08-04T08:22:19Z</time>
      </trkpt>
      <trkpt lat="49.93742" lon="1.93918">
        <ele>39.9</ele>
        <time>2013-08-04T08:22:32Z</time>
      </trkpt>
      <trkpt lat="49.93728" lon="1.93923">
        <ele>39.1</ele>
        <time>2013-08-04T08:22:43Z</time>
      </trkpt>
      <trkpt lat="49.93715" lon="1.9393">
        <ele>38.3</ele>
        <time>2013-08-04T08:22:54Z</time>
      </trkpt>
      <trkpt lat="49.937" lon="1.93935">
        <ele>36.6</ele>
        <time>2013-08-04T08:23:06Z</time>
      </trkpt>
      <trkpt lat="49.93686" lon="1.93939">
        <ele>34.6</ele>
        <time>2013-08-04T08:23:18Z</time>
      </trkpt>
      <trkpt lat="49.93674" lon="1.9395">
        <ele>33</ele>
        <time>2013-08-04T08:23:30Z</time>
      </trkpt>
      <trkpt lat="49.9366" lon="1.93952">
        <ele>31.2</ele>
        <time>2013-08-04T08:23:40Z</time>
      </trkpt>
      <trkpt lat="49.93647" lon="1.93961">
        <ele>32</ele>
        <time>2013-08-04T08:23:47Z</time>
      </trkpt>
      <trkpt lat="49.93633" lon="1.93964">
        <ele>32.8</ele>
        <time>2013-08-04T08:23:58Z</time>
      </trkpt>
      <trkpt lat="49.93621" lon="1.93977">
        <ele>31</ele>
        <time>2013-08-04T08:24:14Z</time>
      </trkpt>
      <trkpt lat="49.93609" lon="1.93987">
        <ele>29.6</ele>
        <time>2013-08-04T08:24:23Z</time>
      </trkpt>
      <trkpt lat="49.93598" lon="1.94002">
        <ele>28.4</ele>
        <time>2013-08-04T08:24:31Z</time>
      </trkpt>
      <trkpt lat="49.93595" lon="1.94025">
        <ele>27.2</ele>
        <time>2013-08-04T08:24:39Z</time>
      </trkpt>
      <trkpt lat="49.93589" lon="1.94034">
        <ele>26.6</ele>
        <time>2013-08-04T08:24:43Z</time>
      </trkpt>
      <trkpt lat="49.93575" lon="1.94032">
        <ele>25.2</ele>
        <time>2013-08-04T08:24:49Z</time>
      </trkpt>
      <trkpt lat="49.93563" lon="1.94042">
        <ele>31.6</ele>
        <time>2013-08-04T08:25:09Z</time>
      </trkpt>
      <trkpt lat="49.93555" lon="1.94059">
        <ele>36</ele>
        <time>2013-08-04T08:25:19Z</time>
      </trkpt>
      <trkpt lat="49.93546" lon="1.94076">
        <ele>29.5</ele>
        <time>2013-08-04T08:25:31Z</time>
      </trkpt>
      <trkpt lat="49.93535" lon="1.94089">
        <ele>26</ele>
        <time>2013-08-04T08:25:50Z</time>
      </trkpt>
      <trkpt lat="49.93524" lon="1.94102">
        <ele>25.2</ele>
        <time>2013-08-04T08:26:03Z</time>
      </trkpt>
      <trkpt lat="49.93515" lon="1.9412">
        <ele>25.6</ele>
        <time>2013-08-04T08:26:11Z</time>
      </trkpt>
      <trkpt lat="49.93502" lon="1.9413">
        <ele>25.9</ele>
        <time>2013-08-04T08:26:18Z</time>
      </trkpt>
      <trkpt lat="49.9349" lon="1.94143">
        <ele>26.9</ele>
        <time>2013-08-04T08:26:29Z</time>
      </trkpt>
      <trkpt lat="49.93478" lon="1.94155">
        <ele>29.1</ele>
        <time>2013-08-04T08:26:38Z</time>
      </trkpt>
      <trkpt lat="49.93471" lon="1.94174">
        <ele>31.6</ele>
        <time>2013-08-04T08:26:51Z</time>
      </trkpt>
      <trkpt lat="49.93459" lon="1.94185">
        <ele>33.2</ele>
        <time>2013-08-04T08:27:02Z</time>
      </trkpt>
      <trkpt lat="49.93447" lon="1.94194">
        <ele>33.7</ele>
        <time>2013-08-04T08:27:11Z</time>
      </trkpt>
      <trkpt lat="49.93435" lon="1.94205">
        <ele>33</ele>
        <time>2013-08-04T08:27:20Z</time>
      </trkpt>
      <trkpt lat="49.93425" lon="1.94221">
        <ele>35</ele>
        <time>2013-08-04T08:27:30Z</time>
      </trkpt>
      <trkpt lat="49.93411" lon="1.9423">
        <ele>35</ele>
        <time>2013-08-04T08:27:36Z</time>
      </trkpt>
      <trkpt lat="49.93399" lon="1.94245">
        <ele>35.8</ele>
        <time>2013-08-04T08:27:43Z</time>
      </trkpt>
      <trkpt lat="49.93386" lon="1.9425">
        <ele>39.1</ele>
        <time>2013-08-04T08:27:51Z</time>
      </trkpt>
      <trkpt lat="49.93384" lon="1.94248">
        <ele>40.8</ele>
        <time>2013-08-04T08:27:55Z</time>
      </trkpt>
      <trkpt lat="49.93372" lon="1.94238">
        <ele>46.6</ele>
        <time>2013-08-04T08:28:09Z</time>
      </trkpt>
      <trkpt lat="49.93357" lon="1.94239">
        <ele>48</ele>
        <time>2013-08-04T08:28:20Z</time>
      </trkpt>
      <trkpt lat="49.93343" lon="1.94244">
        <ele>49.2</ele>
        <time>2013-08-04T08:28:29Z</time>
      </trkpt>
      <trkpt lat="49.93329" lon="1.94247">
        <ele>50.7</ele>
        <time>2013-08-04T08:28:41Z</time>
      </trkpt>
      <trkpt lat="49.93315" lon="1.94253">
        <ele>46</ele>
        <time>2013-08-04T08:28:48Z</time>
      </trkpt>
      <trkpt lat="49.93302" lon="1.94258">
        <ele>48.7</ele>
        <time>2013-08-04T08:28:55Z</time>
      </trkpt>
      <trkpt lat="49.93297" lon="1.94237">
        <ele>46.7</ele>
        <time>2013-08-04T08:29:07Z</time>
      </trkpt>
      <trkpt lat="49.93287" lon="1.94221">
        <ele>46</ele>
        <time>2013-08-04T08:29:21Z</time>
      </trkpt>
      <trkpt lat="49.93273" lon="1.94222">
        <ele>45.4</ele>
        <time>2013-08-04T08:29:34Z</time>
      </trkpt>
      <trkpt lat="49.93248" lon="1.94207">
        <ele>44.7</ele>
        <time>2013-08-04T08:29:48Z</time>
      </trkpt>
      <trkpt lat="49.9324" lon="1.94189">
        <ele>43.4</ele>
        <time>2013-08-04T08:30:06Z</time>
      </trkpt>
      <trkpt lat="49.93243" lon="1.94168">
        <ele>39.8</ele>
        <time>2013-08-04T08:30:17Z</time>
      </trkpt>
      <trkpt lat="49.93243" lon="1.94146">
        <ele>39.4</ele>
        <time>2013-08-04T08:30:25Z</time>
      </trkpt>
      <trkpt lat="49.93235" lon="1.94127">
        <ele>40.8</ele>
        <time>2013-08-04T08:30:36Z</time>
      </trkpt>
      <trkpt lat="49.93221" lon="1.94119">
        <ele>43.3</ele>
        <time>2013-08-04T08:30:50Z</time>
      </trkpt>
      <trkpt lat="49.93209" lon="1.9411">
        <ele>45.2</ele>
        <time>2013-08-04T08:30:59Z</time>
      </trkpt>
      <trkpt lat="49.93195" lon="1.94103">
        <ele>45.5</ele>
        <time>2013-08-04T08:31:09Z</time>
      </trkpt>
      <trkpt lat="49.93181" lon="1.94098">
        <ele>42.2</ele>
        <time>2013-08-04T08:31:22Z</time>
      </trkpt>
      <trkpt lat="49.93167" lon="1.94101">
        <ele>40</ele>
        <time>2013-08-04T08:31:34Z</time>
      </trkpt>
      <trkpt lat="49.93158" lon="1.94082">
        <ele>41.3</ele>
        <time>2013-08-04T08:31:41Z</time>
      </trkpt>
      <trkpt lat="49.93154" lon="1.94061">
        <ele>43.8</ele>
        <time>2013-08-04T08:31:54Z</time>
      </trkpt>
      <trkpt lat="49.93148" lon="1.94041">
        <ele>46</ele>
        <time>2013-08-04T08:32:06Z</time>
      </trkpt>
      <trkpt lat="49.93147" lon="1.93997">
        <ele>44.3</ele>
        <time>2013-08-04T08:32:21Z</time>
      </trkpt>
      <trkpt lat="49.93147" lon="1.93997">
        <ele>44.3</ele>
        <time>2013-08-04T08:32:58Z</time>
      </trkpt>
      <trkpt lat="49.93146" lon="1.93975">
        <ele>42</ele>
        <time>2013-08-04T08:32:58Z</time>
      </trkpt>
      <trkpt lat="49.93146" lon="1.93954">
        <ele>42.8</ele>
        <time>2013-08-04T08:33:09Z</time>
      </trkpt>
      <trkpt lat="49.93145" lon="1.93931">
        <ele>43.8</ele>
        <time>2013-08-04T08:33:22Z</time>
      </trkpt>
      <trkpt lat="49.93148" lon="1.9391">
        <ele>43.3</ele>
        <time>2013-08-04T08:33:32Z</time>
      </trkpt>
      <trkpt lat="49.93148" lon="1.93888">
        <ele>42.3</ele>
        <time>2013-08-04T08:33:43Z</time>
      </trkpt>
      <trkpt lat="49.93149" lon="1.93866">
        <ele>41.5</ele>
        <time>2013-08-04T08:33:52Z</time>
      </trkpt>
      <trkpt lat="49.93148" lon="1.93844">
        <ele>40.5</ele>
        <time>2013-08-04T08:34:03Z</time>
      </trkpt>
      <trkpt lat="49.93143" lon="1.93823">
        <ele>39.4</ele>
        <time>2013-08-04T08:34:14Z</time>
      </trkpt>
      <trkpt lat="49.93138" lon="1.93802">
        <ele>38.1</ele>
        <time>2013-08-04T08:34:26Z</time>
      </trkpt>
      <trkpt lat="49.93135" lon="1.93781">
        <ele>36.6</ele>
        <time>2013-08-04T08:34:43Z</time>
      </trkpt>
      <trkpt lat="49.93128" lon="1.93763">
        <ele>32</ele>
        <time>2013-08-04T08:34:59Z</time>
      </trkpt>
      <trkpt lat="49.93126" lon="1.93739">
        <ele>35.6</ele>
        <time>2013-08-04T08:35:09Z</time>
      </trkpt>
      <trkpt lat="49.93126" lon="1.93715">
        <ele>38.8</ele>
        <time>2013-08-04T08:35:16Z</time>
      </trkpt>
      <trkpt lat="49.93121" lon="1.93695">
        <ele>42.5</ele>
        <time>2013-08-04T08:35:24Z</time>
      </trkpt>
      <trkpt lat="49.93121" lon="1.93674">
        <ele>48</ele>
        <time>2013-08-04T08:35:35Z</time>
      </trkpt>
      <trkpt lat="49.93119" lon="1.93653">
        <ele>50.8</ele>
        <time>2013-08-04T08:35:47Z</time>
      </trkpt>
      <trkpt lat="49.93114" lon="1.93633">
        <ele>52.3</ele>
        <time>2013-08-04T08:35:55Z</time>
      </trkpt>
      <trkpt lat="49.93111" lon="1.93612">
        <ele>55.3</ele>
        <time>2013-08-04T08:36:04Z</time>
      </trkpt>
      <trkpt lat="49.93107" lon="1.93592">
        <ele>54.6</ele>
        <time>2013-08-04T08:36:14Z</time>
      </trkpt>
      <trkpt lat="49.93105" lon="1.93569">
        <ele>53.4</ele>
        <time>2013-08-04T08:36:26Z</time>
      </trkpt>
      <trkpt lat="49.93101" lon="1.93548">
        <ele>52.3</ele>
        <time>2013-08-04T08:36:36Z</time>
      </trkpt>
      <trkpt lat="49.93098" lon="1.93526">
        <ele>50</ele>
        <time>2013-08-04T08:36:45Z</time>
      </trkpt>
      <trkpt lat="49.9309" lon="1.93508">
        <ele>50.9</ele>
        <time>2013-08-04T08:36:57Z</time>
      </trkpt>
      <trkpt lat="49.93089" lon="1.93486">
        <ele>52.7</ele>
        <time>2013-08-04T08:37:08Z</time>
      </trkpt>
      <trkpt lat="49.93079" lon="1.93471">
        <ele>51.2</ele>
        <time>2013-08-04T08:37:18Z</time>
      </trkpt>
      <trkpt lat="49.93071" lon="1.93452">
        <ele>49.5</ele>
        <time>2013-08-04T08:37:30Z</time>
      </trkpt>
      <trkpt lat="49.9306" lon="1.93439">
        <ele>48.7</ele>
        <time>2013-08-04T08:37:41Z</time>
      </trkpt>
      <trkpt lat="49.93052" lon="1.93422">
        <ele>52.7</ele>
        <time>2013-08-04T08:37:50Z</time>
      </trkpt>
      <trkpt lat="49.93043" lon="1.93405">
        <ele>54.8</ele>
        <time>2013-08-04T08:38:01Z</time>
      </trkpt>
      <trkpt lat="49.93036" lon="1.93387">
        <ele>56.4</ele>
        <time>2013-08-04T08:38:10Z</time>
      </trkpt>
      <trkpt lat="49.93029" lon="1.93368">
        <ele>58</ele>
        <time>2013-08-04T08:38:19Z</time>
      </trkpt>
      <trkpt lat="49.93022" lon="1.9335">
        <ele>58.7</ele>
        <time>2013-08-04T08:38:29Z</time>
      </trkpt>
      <trkpt lat="49.93015" lon="1.9333">
        <ele>58</ele>
        <time>2013-08-04T08:38:41Z</time>
      </trkpt>
      <trkpt lat="49.93009" lon="1.93311">
        <ele>59.1</ele>
        <time>2013-08-04T08:38:50Z</time>
      </trkpt>
      <trkpt lat="49.92993" lon="1.93275">
        <ele>60.6</ele>
        <time>2013-08-04T08:39:03Z</time>
      </trkpt>
      <trkpt lat="49.92993" lon="1.93275">
        <ele>60.6</ele>
        <time>2013-08-04T08:40:39Z</time>
      </trkpt>
      <trkpt lat="49.92985" lon="1.93257">
        <ele>59.1</ele>
        <time>2013-08-04T08:40:41Z</time>
      </trkpt>
      <trkpt lat="49.92977" lon="1.93238">
        <ele>62.2</ele>
        <time>2013-08-04T08:40:54Z</time>
      </trkpt>
      <trkpt lat="49.92968" lon="1.93221">
        <ele>62.1</ele>
        <time>2013-08-04T08:41:04Z</time>
      </trkpt>
      <trkpt lat="49.92959" lon="1.93204">
        <ele>60.2</ele>
        <time>2013-08-04T08:41:15Z</time>
      </trkpt>
      <trkpt lat="49.9295" lon="1.93188">
        <ele>63.8</ele>
        <time>2013-08-04T08:41:24Z</time>
      </trkpt>
      <trkpt lat="49.92939" lon="1.93172">
        <ele>62.2</ele>
        <time>2013-08-04T08:41:40Z</time>
      </trkpt>
      <trkpt lat="49.92928" lon="1.93157">
        <ele>60.6</ele>
        <time>2013-08-04T08:41:49Z</time>
      </trkpt>
      <trkpt lat="49.92919" lon="1.93141">
        <ele>65.5</ele>
        <time>2013-08-04T08:41:58Z</time>
      </trkpt>
      <trkpt lat="49.92911" lon="1.93124">
        <ele>71.1</ele>
        <time>2013-08-04T08:42:09Z</time>
      </trkpt>
      <trkpt lat="49.92898" lon="1.93111">
        <ele>73.5</ele>
        <time>2013-08-04T08:42:18Z</time>
      </trkpt>
      <trkpt lat="49.92888" lon="1.93097">
        <ele>71.5</ele>
        <time>2013-08-04T08:42:28Z</time>
      </trkpt>
      <trkpt lat="49.92878" lon="1.93082">
        <ele>66.2</ele>
        <time>2013-08-04T08:42:41Z</time>
      </trkpt>
      <trkpt lat="49.92865" lon="1.93073">
        <ele>63.3</ele>
        <time>2013-08-04T08:42:52Z</time>
      </trkpt>
      <trkpt lat="49.92854" lon="1.93057">
        <ele>63.7</ele>
        <time>2013-08-04T08:43:03Z</time>
      </trkpt>
      <trkpt lat="49.92843" lon="1.93043">
        <ele>60.2</ele>
        <time>2013-08-04T08:43:15Z</time>
      </trkpt>
      <trkpt lat="49.92831" lon="1.9303">
        <ele>57</ele>
        <time>2013-08-04T08:43:26Z</time>
      </trkpt>
      <trkpt lat="49.9282" lon="1.93016">
        <ele>60.1</ele>
        <time>2013-08-04T08:43:35Z</time>
      </trkpt>
      <trkpt lat="49.92809" lon="1.93002">
        <ele>62.7</ele>
        <time>2013-08-04T08:43:45Z</time>
      </trkpt>
      <trkpt lat="49.92797" lon="1.92989">
        <ele>61.4</ele>
        <time>2013-08-04T08:43:55Z</time>
      </trkpt>
      <trkpt lat="49.92787" lon="1.92974">
        <ele>60.3</ele>
        <time>2013-08-04T08:44:04Z</time>
      </trkpt>
      <trkpt lat="49.92778" lon="1.92958">
        <ele>65.5</ele>
        <time>2013-08-04T08:44:13Z</time>
      </trkpt>
      <trkpt lat="49.92769" lon="1.92942">
        <ele>68.7</ele>
        <time>2013-08-04T08:44:24Z</time>
      </trkpt>
      <trkpt lat="49.92763" lon="1.92922">
        <ele>67.9</ele>
        <time>2013-08-04T08:44:35Z</time>
      </trkpt>
      <trkpt lat="49.92762" lon="1.929">
        <ele>67.3</ele>
        <time>2013-08-04T08:44:43Z</time>
      </trkpt>
      <trkpt lat="49.92747" lon="1.92851">
        <ele>72.6</ele>
        <time>2013-08-04T08:45:06Z</time>
      </trkpt>
      <trkpt lat="49.92747" lon="1.92851">
        <ele>72.6</ele>
        <time>2013-08-04T08:45:44Z</time>
      </trkpt>
      <trkpt lat="49.92737" lon="1.92823">
        <ele>74.9</ele>
        <time>2013-08-04T08:45:53Z</time>
      </trkpt>
      <trkpt lat="49.92729" lon="1.92805">
        <ele>73.5</ele>
        <time>2013-08-04T08:46:04Z</time>
      </trkpt>
      <trkpt lat="49.92723" lon="1.92783">
        <ele>72</ele>
        <time>2013-08-04T08:46:14Z</time>
      </trkpt>
      <trkpt lat="49.92718" lon="1.92762">
        <ele>71.8</ele>
        <time>2013-08-04T08:46:24Z</time>
      </trkpt>
      <trkpt lat="49.92712" lon="1.92743">
        <ele>72.7</ele>
        <time>2013-08-04T08:46:33Z</time>
      </trkpt>
      <trkpt lat="49.92705" lon="1.92724">
        <ele>74.3</ele>
        <time>2013-08-04T08:46:46Z</time>
      </trkpt>
      <trkpt lat="49.92698" lon="1.92704">
        <ele>76.4</ele>
        <time>2013-08-04T08:46:57Z</time>
      </trkpt>
      <trkpt lat="49.92694" lon="1.92684">
        <ele>78</ele>
        <time>2013-08-04T08:47:06Z</time>
      </trkpt>
      <trkpt lat="49.92687" lon="1.92663">
        <ele>79.8</ele>
        <time>2013-08-04T08:47:16Z</time>
      </trkpt>
      <trkpt lat="49.92682" lon="1.92642">
        <ele>79.5</ele>
        <time>2013-08-04T08:47:26Z</time>
      </trkpt>
      <trkpt lat="49.92676" lon="1.92622">
        <ele>81.6</ele>
        <time>2013-08-04T08:47:37Z</time>
      </trkpt>
      <trkpt lat="49.92671" lon="1.92602">
        <ele>83.6</ele>
        <time>2013-08-04T08:47:48Z</time>
      </trkpt>
      <trkpt lat="49.92667" lon="1.92582">
        <ele>86.1</ele>
        <time>2013-08-04T08:47:56Z</time>
      </trkpt>
      <trkpt lat="49.92662" lon="1.9256">
        <ele>88.9</ele>
        <time>2013-08-04T08:48:06Z</time>
      </trkpt>
      <trkpt lat="49.92656" lon="1.9254">
        <ele>90.8</ele>
        <time>2013-08-04T08:48:17Z</time>
      </trkpt>
      <trkpt lat="49.92649" lon="1.92521">
        <ele>92.1</ele>
        <time>2013-08-04T08:48:26Z</time>
      </trkpt>
      <trkpt lat="49.92642" lon="1.92502">
        <ele>93.3</ele>
        <time>2013-08-04T08:48:35Z</time>
      </trkpt>
      <trkpt lat="49.92637" lon="1.92482">
        <ele>94.1</ele>
        <time>2013-08-04T08:48:44Z</time>
      </trkpt>
      <trkpt lat="49.9263" lon="1.92463">
        <ele>94.6</ele>
        <time>2013-08-04T08:48:55Z</time>
      </trkpt>
      <trkpt lat="49.92622" lon="1.92446">
        <ele>94.9</ele>
        <time>2013-08-04T08:49:05Z</time>
      </trkpt>
      <trkpt lat="49.92616" lon="1.92425">
        <ele>96.6</ele>
        <time>2013-08-04T08:49:19Z</time>
      </trkpt>
      <trkpt lat="49.92598" lon="1.92375">
        <ele>96.5</ele>
        <time>2013-08-04T08:49:35Z</time>
      </trkpt>
      <trkpt lat="49.92598" lon="1.92375">
        <ele>96.5</ele>
        <time>2013-08-04T08:52:12Z</time>
      </trkpt>
      <trkpt lat="49.92588" lon="1.92343">
        <ele>94.9</ele>
        <time>2013-08-04T08:52:23Z</time>
      </trkpt>
      <trkpt lat="49.9258" lon="1.92323">
        <ele>95.3</ele>
        <time>2013-08-04T08:52:35Z</time>
      </trkpt>
      <trkpt lat="49.92574" lon="1.92302">
        <ele>95.7</ele>
        <time>2013-08-04T08:52:46Z</time>
      </trkpt>
      <trkpt lat="49.9257" lon="1.92281">
        <ele>95.7</ele>
        <time>2013-08-04T08:52:56Z</time>
      </trkpt>
      <trkpt lat="49.92563" lon="1.92263">
        <ele>92.4</ele>
        <time>2013-08-04T08:53:06Z</time>
      </trkpt>
      <trkpt lat="49.92556" lon="1.92243">
        <ele>89.4</ele>
        <time>2013-08-04T08:53:16Z</time>
      </trkpt>
      <trkpt lat="49.92555" lon="1.92222">
        <ele>87.9</ele>
        <time>2013-08-04T08:53:21Z</time>
      </trkpt>
      <trkpt lat="49.9255" lon="1.92201">
        <ele>92</ele>
        <time>2013-08-04T08:53:30Z</time>
      </trkpt>
      <trkpt lat="49.92545" lon="1.9218">
        <ele>94</ele>
        <time>2013-08-04T08:53:42Z</time>
      </trkpt>
      <trkpt lat="49.92539" lon="1.92161">
        <ele>94.8</ele>
        <time>2013-08-04T08:53:55Z</time>
      </trkpt>
      <trkpt lat="49.92532" lon="1.92142">
        <ele>94.1</ele>
        <time>2013-08-04T08:54:09Z</time>
      </trkpt>
      <trkpt lat="49.92525" lon="1.92123">
        <ele>94.6</ele>
        <time>2013-08-04T08:54:18Z</time>
      </trkpt>
      <trkpt lat="49.92521" lon="1.92102">
        <ele>99.1</ele>
        <time>2013-08-04T08:54:27Z</time>
      </trkpt>
      <trkpt lat="49.92518" lon="1.9208">
        <ele>99.8</ele>
        <time>2013-08-04T08:54:35Z</time>
      </trkpt>
      <trkpt lat="49.92512" lon="1.92061">
        <ele>97.3</ele>
        <time>2013-08-04T08:54:43Z</time>
      </trkpt>
      <trkpt lat="49.92506" lon="1.92042">
        <ele>91.1</ele>
        <time>2013-08-04T08:54:58Z</time>
      </trkpt>
      <trkpt lat="49.925" lon="1.92022">
        <ele>88.7</ele>
        <time>2013-08-04T08:55:08Z</time>
      </trkpt>
      <trkpt lat="49.92494" lon="1.92">
        <ele>87.3</ele>
        <time>2013-08-04T08:55:17Z</time>
      </trkpt>
      <trkpt lat="49.92485" lon="1.91985">
        <ele>86</ele>
        <time>2013-08-04T08:55:28Z</time>
      </trkpt>
      <trkpt lat="49.92473" lon="1.91972">
        <ele>85.9</ele>
        <time>2013-08-04T08:55:40Z</time>
      </trkpt>
      <trkpt lat="49.92464" lon="1.91956">
        <ele>85.3</ele>
        <time>2013-08-04T08:55:51Z</time>
      </trkpt>
      <trkpt lat="49.92446" lon="1.9192">
        <ele>83.1</ele>
        <time>2013-08-04T08:56:01Z</time>
      </trkpt>
      <trkpt lat="49.92446" lon="1.9192">
        <ele>83.1</ele>
        <time>2013-08-04T08:56:47Z</time>
      </trkpt>
      <trkpt lat="49.92437" lon="1.91901">
        <ele>81.5</ele>
        <time>2013-08-04T08:56:53Z</time>
      </trkpt>
      <trkpt lat="49.92429" lon="1.91883">
        <ele>81.6</ele>
        <time>2013-08-04T08:57:06Z</time>
      </trkpt>
      <trkpt lat="49.92418" lon="1.91869">
        <ele>83</ele>
        <time>2013-08-04T08:57:15Z</time>
      </trkpt>
      <trkpt lat="49.92408" lon="1.91852">
        <ele>84.5</ele>
        <time>2013-08-04T08:57:25Z</time>
      </trkpt>
      <trkpt lat="49.92399" lon="1.91834">
        <ele>84.2</ele>
        <time>2013-08-04T08:57:34Z</time>
      </trkpt>
      <trkpt lat="49.92388" lon="1.9182">
        <ele>82.4</ele>
        <time>2013-08-04T08:57:47Z</time>
      </trkpt>
      <trkpt lat="49.92381" lon="1.91802">
        <ele>81</ele>
        <time>2013-08-04T08:57:57Z</time>
      </trkpt>
      <trkpt lat="49.92374" lon="1.91784">
        <ele>79.4</ele>
        <time>2013-08-04T08:58:08Z</time>
      </trkpt>
      <trkpt lat="49.92362" lon="1.9177">
        <ele>79.8</ele>
        <time>2013-08-04T08:58:18Z</time>
      </trkpt>
      <trkpt lat="49.92355" lon="1.9175">
        <ele>81.1</ele>
        <time>2013-08-04T08:58:30Z</time>
      </trkpt>
      <trkpt lat="49.92345" lon="1.91735">
        <ele>82.4</ele>
        <time>2013-08-04T08:58:39Z</time>
      </trkpt>
      <trkpt lat="49.92334" lon="1.9172">
        <ele>86.1</ele>
        <time>2013-08-04T08:58:48Z</time>
      </trkpt>
      <trkpt lat="49.92324" lon="1.91704">
        <ele>89.8</ele>
        <time>2013-08-04T08:58:59Z</time>
      </trkpt>
      <trkpt lat="49.92316" lon="1.91688">
        <ele>93.6</ele>
        <time>2013-08-04T08:59:07Z</time>
      </trkpt>
      <trkpt lat="49.92308" lon="1.91669">
        <ele>91.4</ele>
        <time>2013-08-04T08:59:19Z</time>
      </trkpt>
      <trkpt lat="49.92299" lon="1.91654">
        <ele>90.5</ele>
        <time>2013-08-04T08:59:29Z</time>
      </trkpt>
      <trkpt lat="49.92292" lon="1.91633">
        <ele>89.6</ele>
        <time>2013-08-04T08:59:43Z</time>
      </trkpt>
      <trkpt lat="49.92282" lon="1.91617">
        <ele>89.1</ele>
        <time>2013-08-04T08:59:52Z</time>
      </trkpt>
      <trkpt lat="49.92272" lon="1.91603">
        <ele>87.8</ele>
        <time>2013-08-04T09:00:03Z</time>
      </trkpt>
      <trkpt lat="49.9226" lon="1.91593">
        <ele>86.4</ele>
        <time>2013-08-04T09:00:16Z</time>
      </trkpt>
      <trkpt lat="49.92247" lon="1.91584">
        <ele>87.4</ele>
        <time>2013-08-04T09:00:30Z</time>
      </trkpt>
      <trkpt lat="49.92234" lon="1.9158">
        <ele>88.8</ele>
        <time>2013-08-04T09:00:40Z</time>
      </trkpt>
      <trkpt lat="49.92222" lon="1.91567">
        <ele>90.2</ele>
        <time>2013-08-04T09:00:50Z</time>
      </trkpt>
      <trkpt lat="49.92212" lon="1.91552">
        <ele>92.4</ele>
        <time>2013-08-04T09:01:02Z</time>
      </trkpt>
      <trkpt lat="49.92201" lon="1.91536">
        <ele>93.9</ele>
        <time>2013-08-04T09:01:10Z</time>
      </trkpt>
      <trkpt lat="49.92193" lon="1.91518">
        <ele>94.6</ele>
        <time>2013-08-04T09:01:20Z</time>
      </trkpt>
      <trkpt lat="49.92185" lon="1.91501">
        <ele>93.4</ele>
        <time>2013-08-04T09:01:31Z</time>
      </trkpt>
      <trkpt lat="49.92181" lon="1.91496">
        <ele>92.5</ele>
        <time>2013-08-04T09:01:39Z</time>
      </trkpt>
      <trkpt lat="49.92175" lon="1.91476">
        <ele>95</ele>
        <time>2013-08-04T09:01:56Z</time>
      </trkpt>
      <trkpt lat="49.92165" lon="1.91459">
        <ele>99.5</ele>
        <time>2013-08-04T09:02:06Z</time>
      </trkpt>
      <trkpt lat="49.92154" lon="1.91445">
        <ele>103.3</ele>
        <time>2013-08-04T09:02:16Z</time>
      </trkpt>
      <trkpt lat="49.92144" lon="1.9143">
        <ele>104.3</ele>
        <time>2013-08-04T09:02:28Z</time>
      </trkpt>
      <trkpt lat="49.92136" lon="1.91412">
        <ele>105.3</ele>
        <time>2013-08-04T09:02:40Z</time>
      </trkpt>
      <trkpt lat="49.92128" lon="1.91395">
        <ele>106.1</ele>
        <time>2013-08-04T09:02:49Z</time>
      </trkpt>
      <trkpt lat="49.9212" lon="1.91377">
        <ele>107</ele>
        <time>2013-08-04T09:02:59Z</time>
      </trkpt>
      <trkpt lat="49.92108" lon="1.91364">
        <ele>105</ele>
        <time>2013-08-04T09:03:09Z</time>
      </trkpt>
      <trkpt lat="49.92099" lon="1.91347">
        <ele>102.2</ele>
        <time>2013-08-04T09:03:21Z</time>
      </trkpt>
      <trkpt lat="49.9209" lon="1.91329">
        <ele>99.1</ele>
        <time>2013-08-04T09:03:32Z</time>
      </trkpt>
      <trkpt lat="49.92087" lon="1.91321">
        <ele>97.6</ele>
        <time>2013-08-04T09:03:37Z</time>
      </trkpt>
      <trkpt lat="49.92081" lon="1.91301">
        <ele>100.9</ele>
        <time>2013-08-04T09:03:59Z</time>
      </trkpt>
      <trkpt lat="49.92071" lon="1.91286">
        <ele>102.5</ele>
        <time>2013-08-04T09:04:08Z</time>
      </trkpt>
      <trkpt lat="49.92063" lon="1.91267">
        <ele>104.1</ele>
        <time>2013-08-04T09:04:17Z</time>
      </trkpt>
      <trkpt lat="49.92054" lon="1.9125">
        <ele>104.7</ele>
        <time>2013-08-04T09:04:26Z</time>
      </trkpt>
      <trkpt lat="49.92045" lon="1.91233">
        <ele>105.4</ele>
        <time>2013-08-04T09:04:35Z</time>
      </trkpt>
      <trkpt lat="49.92036" lon="1.91216">
        <ele>106</ele>
        <time>2013-08-04T09:04:44Z</time>
      </trkpt>
      <trkpt lat="49.92026" lon="1.912">
        <ele>102</ele>
        <time>2013-08-04T09:04:57Z</time>
      </trkpt>
      <trkpt lat="49.92015" lon="1.91186">
        <ele>100.1</ele>
        <time>2013-08-04T09:05:08Z</time>
      </trkpt>
      <trkpt lat="49.92007" lon="1.91169">
        <ele>102.4</ele>
        <time>2013-08-04T09:05:18Z</time>
      </trkpt>
      <trkpt lat="49.91999" lon="1.91149">
        <ele>100.8</ele>
        <time>2013-08-04T09:05:29Z</time>
      </trkpt>
      <trkpt lat="49.91984" lon="1.91138">
        <ele>103.6</ele>
        <time>2013-08-04T09:05:36Z</time>
      </trkpt>
      <trkpt lat="49.91975" lon="1.9112">
        <ele>106.5</ele>
        <time>2013-08-04T09:05:46Z</time>
      </trkpt>
      <trkpt lat="49.91965" lon="1.91104">
        <ele>110.6</ele>
        <time>2013-08-04T09:05:57Z</time>
      </trkpt>
      <trkpt lat="49.91954" lon="1.91081">
        <ele>111</ele>
        <time>2013-08-04T09:06:09Z</time>
      </trkpt>
      <trkpt lat="49.91949" lon="1.91061">
        <ele>110.5</ele>
        <time>2013-08-04T09:06:24Z</time>
      </trkpt>
      <trkpt lat="49.91943" lon="1.91041">
        <ele>110.8</ele>
        <time>2013-08-04T09:06:37Z</time>
      </trkpt>
      <trkpt lat="49.91936" lon="1.91022">
        <ele>108.7</ele>
        <time>2013-08-04T09:06:48Z</time>
      </trkpt>
      <trkpt lat="49.91931" lon="1.91002">
        <ele>106.3</ele>
        <time>2013-08-04T09:07:03Z</time>
      </trkpt>
      <trkpt lat="49.91921" lon="1.90985">
        <ele>103.9</ele>
        <time>2013-08-04T09:07:19Z</time>
      </trkpt>
      <trkpt lat="49.91913" lon="1.90967">
        <ele>102.6</ele>
        <time>2013-08-04T09:07:28Z</time>
      </trkpt>
      <trkpt lat="49.91907" lon="1.90948">
        <ele>103.4</ele>
        <time>2013-08-04T09:07:36Z</time>
      </trkpt>
      <trkpt lat="49.919" lon="1.90929">
        <ele>107</ele>
        <time>2013-08-04T09:07:49Z</time>
      </trkpt>
      <trkpt lat="49.9189" lon="1.90919">
        <ele>107.5</ele>
        <time>2013-08-04T09:08:00Z</time>
      </trkpt>
      <trkpt lat="49.91884" lon="1.90901">
        <ele>108.4</ele>
        <time>2013-08-04T09:08:18Z</time>
      </trkpt>
      <trkpt lat="49.91875" lon="1.90883">
        <ele>108.7</ele>
        <time>2013-08-04T09:08:26Z</time>
      </trkpt>
      <trkpt lat="49.91866" lon="1.90867">
        <ele>109.1</ele>
        <time>2013-08-04T09:08:35Z</time>
      </trkpt>
      <trkpt lat="49.91858" lon="1.90847">
        <ele>109.6</ele>
        <time>2013-08-04T09:08:46Z</time>
      </trkpt>
      <trkpt lat="49.91851" lon="1.90829">
        <ele>110.4</ele>
        <time>2013-08-04T09:08:57Z</time>
      </trkpt>
      <trkpt lat="49.91845" lon="1.90809">
        <ele>111.9</ele>
        <time>2013-08-04T09:09:09Z</time>
      </trkpt>
      <trkpt lat="49.91838" lon="1.9079">
        <ele>113.2</ele>
        <time>2013-08-04T09:09:19Z</time>
      </trkpt>
      <trkpt lat="49.91828" lon="1.90774">
        <ele>114.7</ele>
        <time>2013-08-04T09:09:31Z</time>
      </trkpt>
      <trkpt lat="49.91815" lon="1.90763">
        <ele>116.2</ele>
        <time>2013-08-04T09:09:42Z</time>
      </trkpt>
      <trkpt lat="49.91807" lon="1.90747">
        <ele>114.5</ele>
        <time>2013-08-04T09:09:53Z</time>
      </trkpt>
      <trkpt lat="49.918" lon="1.90728">
        <ele>112.8</ele>
        <time>2013-08-04T09:10:08Z</time>
      </trkpt>
      <trkpt lat="49.91796" lon="1.90708">
        <ele>111.8</ele>
        <time>2013-08-04T09:10:19Z</time>
      </trkpt>
      <trkpt lat="49.91785" lon="1.90695">
        <ele>111</ele>
        <time>2013-08-04T09:10:28Z</time>
      </trkpt>
      <trkpt lat="49.91774" lon="1.90682">
        <ele>110.2</ele>
        <time>2013-08-04T09:10:41Z</time>
      </trkpt>
      <trkpt lat="49.91765" lon="1.90665">
        <ele>112</ele>
        <time>2013-08-04T09:10:52Z</time>
      </trkpt>
      <trkpt lat="49.91757" lon="1.90646">
        <ele>112.2</ele>
        <time>2013-08-04T09:11:02Z</time>
      </trkpt>
      <trkpt lat="49.91747" lon="1.90629">
        <ele>110.1</ele>
        <time>2013-08-04T09:11:16Z</time>
      </trkpt>
      <trkpt lat="49.91736" lon="1.90614">
        <ele>110.9</ele>
        <time>2013-08-04T09:11:27Z</time>
      </trkpt>
      <trkpt lat="49.91727" lon="1.90597">
        <ele>111.8</ele>
        <time>2013-08-04T09:11:39Z</time>
      </trkpt>
      <trkpt lat="49.91716" lon="1.90583">
        <ele>112.7</ele>
        <time>2013-08-04T09:11:52Z</time>
      </trkpt>
      <trkpt lat="49.91707" lon="1.90566">
        <ele>113.4</ele>
        <time>2013-08-04T09:11:59Z</time>
      </trkpt>
      <trkpt lat="49.91698" lon="1.90551">
        <ele>114.7</ele>
        <time>2013-08-04T09:12:09Z</time>
      </trkpt>
      <trkpt lat="49.91688" lon="1.90536">
        <ele>115.5</ele>
        <time>2013-08-04T09:12:21Z</time>
      </trkpt>
      <trkpt lat="49.9168" lon="1.90519">
        <ele>113.2</ele>
        <time>2013-08-04T09:12:33Z</time>
      </trkpt>
      <trkpt lat="49.91668" lon="1.90507">
        <ele>113.9</ele>
        <time>2013-08-04T09:12:42Z</time>
      </trkpt>
      <trkpt lat="49.91657" lon="1.90491">
        <ele>114.7</ele>
        <time>2013-08-04T09:12:52Z</time>
      </trkpt>
      <trkpt lat="49.9165" lon="1.90471">
        <ele>115.3</ele>
        <time>2013-08-04T09:13:01Z</time>
      </trkpt>
      <trkpt lat="49.91639" lon="1.90456">
        <ele>116.3</ele>
        <time>2013-08-04T09:13:12Z</time>
      </trkpt>
      <trkpt lat="49.9163" lon="1.90439">
        <ele>117.6</ele>
        <time>2013-08-04T09:13:22Z</time>
      </trkpt>
      <trkpt lat="49.91624" lon="1.90418">
        <ele>118.7</ele>
        <time>2013-08-04T09:13:34Z</time>
      </trkpt>
      <trkpt lat="49.91613" lon="1.90403">
        <ele>117.2</ele>
        <time>2013-08-04T09:13:43Z</time>
      </trkpt>
      <trkpt lat="49.91605" lon="1.90384">
        <ele>115.8</ele>
        <time>2013-08-04T09:13:51Z</time>
      </trkpt>
      <trkpt lat="49.91595" lon="1.90369">
        <ele>113.6</ele>
        <time>2013-08-04T09:14:00Z</time>
      </trkpt>
      <trkpt lat="49.91586" lon="1.90353">
        <ele>114.9</ele>
        <time>2013-08-04T09:14:13Z</time>
      </trkpt>
      <trkpt lat="49.91574" lon="1.9034">
        <ele>113.8</ele>
        <time>2013-08-04T09:14:26Z</time>
      </trkpt>
      <trkpt lat="49.91565" lon="1.90324">
        <ele>112.8</ele>
        <time>2013-08-04T09:14:37Z</time>
      </trkpt>
      <trkpt lat="49.91554" lon="1.90309">
        <ele>112</ele>
        <time>2013-08-04T09:14:46Z</time>
      </trkpt>
      <trkpt lat="49.91542" lon="1.90299">
        <ele>111.1</ele>
        <time>2013-08-04T09:14:57Z</time>
      </trkpt>
      <trkpt lat="49.9153" lon="1.90283">
        <ele>108.7</ele>
        <time>2013-08-04T09:15:07Z</time>
      </trkpt>
      <trkpt lat="49.91522" lon="1.90266">
        <ele>104.7</ele>
        <time>2013-08-04T09:15:15Z</time>
      </trkpt>
      <trkpt lat="49.91513" lon="1.90249">
        <ele>108.6</ele>
        <time>2013-08-04T09:15:25Z</time>
      </trkpt>
      <trkpt lat="49.91502" lon="1.90237">
        <ele>110.5</ele>
        <time>2013-08-04T09:15:33Z</time>
      </trkpt>
      <trkpt lat="49.91493" lon="1.90218">
        <ele>110.3</ele>
        <time>2013-08-04T09:15:46Z</time>
      </trkpt>
      <trkpt lat="49.91486" lon="1.90199">
        <ele>109.2</ele>
        <time>2013-08-04T09:16:02Z</time>
      </trkpt>
      <trkpt lat="49.91478" lon="1.90185">
        <ele>111.1</ele>
        <time>2013-08-04T09:16:13Z</time>
      </trkpt>
      <trkpt lat="49.91473" lon="1.90165">
        <ele>113.7</ele>
        <time>2013-08-04T09:16:21Z</time>
      </trkpt>
      <trkpt lat="49.91463" lon="1.90148">
        <ele>119</ele>
        <time>2013-08-04T09:16:30Z</time>
      </trkpt>
      <trkpt lat="49.91453" lon="1.90136">
        <ele>122</ele>
        <time>2013-08-04T09:16:39Z</time>
      </trkpt>
      <trkpt lat="49.91443" lon="1.90118">
        <ele>121.2</ele>
        <time>2013-08-04T09:16:57Z</time>
      </trkpt>
      <trkpt lat="49.91437" lon="1.901">
        <ele>122</ele>
        <time>2013-08-04T09:17:08Z</time>
      </trkpt>
      <trkpt lat="49.91424" lon="1.90092">
        <ele>121.8</ele>
        <time>2013-08-04T09:17:15Z</time>
      </trkpt>
      <trkpt lat="49.91415" lon="1.90074">
        <ele>121</ele>
        <time>2013-08-04T09:17:24Z</time>
      </trkpt>
      <trkpt lat="49.91407" lon="1.90057">
        <ele>123.4</ele>
        <time>2013-08-04T09:17:35Z</time>
      </trkpt>
      <trkpt lat="49.91387" lon="1.90029">
        <ele>128.7</ele>
        <time>2013-08-04T09:17:50Z</time>
      </trkpt>
      <trkpt lat="49.91387" lon="1.90029">
        <ele>128.7</ele>
        <time>2013-08-04T09:18:46Z</time>
      </trkpt>
      <trkpt lat="49.91378" lon="1.90017">
        <ele>131.6</ele>
        <time>2013-08-04T09:19:03Z</time>
      </trkpt>
      <trkpt lat="49.91366" lon="1.90005">
        <ele>130</ele>
        <time>2013-08-04T09:19:15Z</time>
      </trkpt>
      <trkpt lat="49.91354" lon="1.89993">
        <ele>127.6</ele>
        <time>2013-08-04T09:19:27Z</time>
      </trkpt>
      <trkpt lat="49.91341" lon="1.89982">
        <ele>124.6</ele>
        <time>2013-08-04T09:19:38Z</time>
      </trkpt>
      <trkpt lat="49.91327" lon="1.89976">
        <ele>123.4</ele>
        <time>2013-08-04T09:19:48Z</time>
      </trkpt>
      <trkpt lat="49.91313" lon="1.89968">
        <ele>124.4</ele>
        <time>2013-08-04T09:20:00Z</time>
      </trkpt>
      <trkpt lat="49.91299" lon="1.89968">
        <ele>124.6</ele>
        <time>2013-08-04T09:20:08Z</time>
      </trkpt>
      <trkpt lat="49.91284" lon="1.89969">
        <ele>122.2</ele>
        <time>2013-08-04T09:20:18Z</time>
      </trkpt>
      <trkpt lat="49.91269" lon="1.89968">
        <ele>119.6</ele>
        <time>2013-08-04T09:20:28Z</time>
      </trkpt>
      <trkpt lat="49.91254" lon="1.89968">
        <ele>116.8</ele>
        <time>2013-08-04T09:20:43Z</time>
      </trkpt>
      <trkpt lat="49.9124" lon="1.89964">
        <ele>124</ele>
        <time>2013-08-04T09:20:58Z</time>
      </trkpt>
      <trkpt lat="49.91226" lon="1.89957">
        <ele>121.6</ele>
        <time>2013-08-04T09:21:10Z</time>
      </trkpt>
      <trkpt lat="49.91215" lon="1.89946">
        <ele>119.9</ele>
        <time>2013-08-04T09:21:22Z</time>
      </trkpt>
      <trkpt lat="49.91202" lon="1.89937">
        <ele>119.4</ele>
        <time>2013-08-04T09:21:35Z</time>
      </trkpt>
      <trkpt lat="49.91193" lon="1.8992">
        <ele>120</ele>
        <time>2013-08-04T09:21:44Z</time>
      </trkpt>
      <trkpt lat="49.9118" lon="1.89908">
        <ele>120.6</ele>
        <time>2013-08-04T09:21:54Z</time>
      </trkpt>
      <trkpt lat="49.91171" lon="1.8989">
        <ele>121.3</ele>
        <time>2013-08-04T09:22:04Z</time>
      </trkpt>
      <trkpt lat="49.91157" lon="1.89885">
        <ele>121.7</ele>
        <time>2013-08-04T09:22:11Z</time>
      </trkpt>
      <trkpt lat="49.91149" lon="1.89867">
        <ele>123.3</ele>
        <time>2013-08-04T09:22:25Z</time>
      </trkpt>
      <trkpt lat="49.91148" lon="1.89845">
        <ele>124.7</ele>
        <time>2013-08-04T09:22:36Z</time>
      </trkpt>
      <trkpt lat="49.91142" lon="1.89832">
        <ele>123.3</ele>
        <time>2013-08-04T09:22:54Z</time>
      </trkpt>
      <trkpt lat="49.91142" lon="1.89835">
        <ele>124.1</ele>
        <time>2013-08-04T09:22:59Z</time>
      </trkpt>
      <trkpt lat="49.91154" lon="1.89826">
        <ele>128.5</ele>
        <time>2013-08-04T09:23:11Z</time>
      </trkpt>
      <trkpt lat="49.91157" lon="1.89803">
        <ele>128</ele>
        <time>2013-08-04T09:23:23Z</time>
      </trkpt>
      <trkpt lat="49.91164" lon="1.89784">
        <ele>126.4</ele>
        <time>2013-08-04T09:23:34Z</time>
      </trkpt>
      <trkpt lat="49.91164" lon="1.89762">
        <ele>124.1</ele>
        <time>2013-08-04T09:23:50Z</time>
      </trkpt>
      <trkpt lat="49.91173" lon="1.89746">
        <ele>120.6</ele>
        <time>2013-08-04T09:23:59Z</time>
      </trkpt>
      <trkpt lat="49.91183" lon="1.89702">
        <ele>120.8</ele>
        <time>2013-08-04T09:24:15Z</time>
      </trkpt>
      <trkpt lat="49.91183" lon="1.89702">
        <ele>120.8</ele>
        <time>2013-08-04T09:25:08Z</time>
      </trkpt>
      <trkpt lat="49.91188" lon="1.89681">
        <ele>118.7</ele>
        <time>2013-08-04T09:25:12Z</time>
      </trkpt>
      <trkpt lat="49.9119" lon="1.89682">
        <ele>118.6</ele>
        <time>2013-08-04T09:25:15Z</time>
      </trkpt>
      <trkpt lat="49.91191" lon="1.89661">
        <ele>118.1</ele>
        <time>2013-08-04T09:25:24Z</time>
      </trkpt>
      <trkpt lat="49.91198" lon="1.89641">
        <ele>117.4</ele>
        <time>2013-08-04T09:25:38Z</time>
      </trkpt>
      <trkpt lat="49.91204" lon="1.8962">
        <ele>116.3</ele>
        <time>2013-08-04T09:25:53Z</time>
      </trkpt>
      <trkpt lat="49.91217" lon="1.89581">
        <ele>110.7</ele>
        <time>2013-08-04T09:26:14Z</time>
      </trkpt>
      <trkpt lat="49.91217" lon="1.89581">
        <ele>110.7</ele>
        <time>2013-08-04T09:27:00Z</time>
      </trkpt>
      <trkpt lat="49.91226" lon="1.89562">
        <ele>106.5</ele>
        <time>2013-08-04T09:27:02Z</time>
      </trkpt>
      <trkpt lat="49.9123" lon="1.89541">
        <ele>103</ele>
        <time>2013-08-04T09:27:28Z</time>
      </trkpt>
      <trkpt lat="49.91235" lon="1.89519">
        <ele>100</ele>
        <time>2013-08-04T09:27:40Z</time>
      </trkpt>
      <trkpt lat="49.91239" lon="1.89498">
        <ele>99.6</ele>
        <time>2013-08-04T09:27:50Z</time>
      </trkpt>
      <trkpt lat="49.91245" lon="1.89478">
        <ele>98.2</ele>
        <time>2013-08-04T09:28:02Z</time>
      </trkpt>
      <trkpt lat="49.91254" lon="1.89462">
        <ele>98</ele>
        <time>2013-08-04T09:28:13Z</time>
      </trkpt>
      <trkpt lat="49.91262" lon="1.89444">
        <ele>91.9</ele>
        <time>2013-08-04T09:28:28Z</time>
      </trkpt>
      <trkpt lat="49.91269" lon="1.89425">
        <ele>89.3</ele>
        <time>2013-08-04T09:28:43Z</time>
      </trkpt>
      <trkpt lat="49.91272" lon="1.89402">
        <ele>86.7</ele>
        <time>2013-08-04T09:28:57Z</time>
      </trkpt>
      <trkpt lat="49.91278" lon="1.89383">
        <ele>84.8</ele>
        <time>2013-08-04T09:29:11Z</time>
      </trkpt>
      <trkpt lat="49.91274" lon="1.89362">
        <ele>83.6</ele>
        <time>2013-08-04T09:29:27Z</time>
      </trkpt>
      <trkpt lat="49.91265" lon="1.89346">
        <ele>83.1</ele>
        <time>2013-08-04T09:29:42Z</time>
      </trkpt>
      <trkpt lat="49.91268" lon="1.89324">
        <ele>80</ele>
        <time>2013-08-04T09:29:53Z</time>
      </trkpt>
      <trkpt lat="49.9127" lon="1.89303">
        <ele>80</ele>
        <time>2013-08-04T09:30:02Z</time>
      </trkpt>
      <trkpt lat="49.91278" lon="1.89286">
        <ele>80</ele>
        <time>2013-08-04T09:30:12Z</time>
      </trkpt>
      <trkpt lat="49.91284" lon="1.89266">
        <ele>79</ele>
        <time>2013-08-04T09:30:23Z</time>
      </trkpt>
      <trkpt lat="49.91291" lon="1.89247">
        <ele>77.9</ele>
        <time>2013-08-04T09:30:35Z</time>
      </trkpt>
      <trkpt lat="49.91298" lon="1.89226">
        <ele>77.9</ele>
        <time>2013-08-04T09:30:52Z</time>
      </trkpt>
      <trkpt lat="49.91303" lon="1.89206">
        <ele>79.3</ele>
        <time>2013-08-04T09:31:02Z</time>
      </trkpt>
      <trkpt lat="49.91303" lon="1.89184">
        <ele>76.3</ele>
        <time>2013-08-04T09:31:15Z</time>
      </trkpt>
      <trkpt lat="49.91303" lon="1.89163">
        <ele>74.1</ele>
        <time>2013-08-04T09:31:26Z</time>
      </trkpt>
      <trkpt lat="49.91295" lon="1.89145">
        <ele>72.9</ele>
        <time>2013-08-04T09:31:37Z</time>
      </trkpt>
      <trkpt lat="49.91288" lon="1.89125">
        <ele>71.7</ele>
        <time>2013-08-04T09:31:48Z</time>
      </trkpt>
      <trkpt lat="49.91282" lon="1.89106">
        <ele>69.4</ele>
        <time>2013-08-04T09:32:02Z</time>
      </trkpt>
      <trkpt lat="49.91278" lon="1.89086">
        <ele>70</ele>
        <time>2013-08-04T09:32:15Z</time>
      </trkpt>
      <trkpt lat="49.91264" lon="1.89039">
        <ele>71.7</ele>
        <time>2013-08-04T09:32:35Z</time>
      </trkpt>
      <trkpt lat="49.91264" lon="1.89039">
        <ele>71.7</ele>
        <time>2013-08-04T09:35:02Z</time>
      </trkpt>
      <trkpt lat="49.91253" lon="1.89013">
        <ele>73.7</ele>
        <time>2013-08-04T09:35:05Z</time>
      </trkpt>
      <trkpt lat="49.91244" lon="1.88998">
        <ele>74.3</ele>
        <time>2013-08-04T09:35:16Z</time>
      </trkpt>
      <trkpt lat="49.91234" lon="1.88982">
        <ele>75</ele>
        <time>2013-08-04T09:35:28Z</time>
      </trkpt>
      <trkpt lat="49.91224" lon="1.88968">
        <ele>74.5</ele>
        <time>2013-08-04T09:35:38Z</time>
      </trkpt>
      <trkpt lat="49.91211" lon="1.88959">
        <ele>74.1</ele>
        <time>2013-08-04T09:35:46Z</time>
      </trkpt>
      <trkpt lat="49.91208" lon="1.88943">
        <ele>73.7</ele>
        <time>2013-08-04T09:35:55Z</time>
      </trkpt>
      <trkpt lat="49.9122" lon="1.8893">
        <ele>72.8</ele>
        <time>2013-08-04T09:36:15Z</time>
      </trkpt>
      <trkpt lat="49.91228" lon="1.88912">
        <ele>72.2</ele>
        <time>2013-08-04T09:36:27Z</time>
      </trkpt>
      <trkpt lat="49.91236" lon="1.88893">
        <ele>71.5</ele>
        <time>2013-08-04T09:36:41Z</time>
      </trkpt>
      <trkpt lat="49.91246" lon="1.88876">
        <ele>71.2</ele>
        <time>2013-08-04T09:36:53Z</time>
      </trkpt>
      <trkpt lat="49.91257" lon="1.88863">
        <ele>72.8</ele>
        <time>2013-08-04T09:37:03Z</time>
      </trkpt>
      <trkpt lat="49.91254" lon="1.88852">
        <ele>76.2</ele>
        <time>2013-08-04T09:37:19Z</time>
      </trkpt>
      <trkpt lat="49.91262" lon="1.88834">
        <ele>79.5</ele>
        <time>2013-08-04T09:37:32Z</time>
      </trkpt>
      <trkpt lat="49.91268" lon="1.88823">
        <ele>81.8</ele>
        <time>2013-08-04T09:37:41Z</time>
      </trkpt>
      <trkpt lat="49.91283" lon="1.8882">
        <ele>84</ele>
        <time>2013-08-04T09:37:58Z</time>
      </trkpt>
      <trkpt lat="49.91294" lon="1.88806">
        <ele>84</ele>
        <time>2013-08-04T09:38:17Z</time>
      </trkpt>
      <trkpt lat="49.91309" lon="1.88801">
        <ele>84</ele>
        <time>2013-08-04T09:38:25Z</time>
      </trkpt>
      <trkpt lat="49.91323" lon="1.8879">
        <ele>84.1</ele>
        <time>2013-08-04T09:38:32Z</time>
      </trkpt>
      <trkpt lat="49.91336" lon="1.88778">
        <ele>85.8</ele>
        <time>2013-08-04T09:38:44Z</time>
      </trkpt>
      <trkpt lat="49.91343" lon="1.88759">
        <ele>89.6</ele>
        <time>2013-08-04T09:39:00Z</time>
      </trkpt>
      <trkpt lat="49.91352" lon="1.88741">
        <ele>95.7</ele>
        <time>2013-08-04T09:39:19Z</time>
      </trkpt>
      <trkpt lat="49.91362" lon="1.88726">
        <ele>96.3</ele>
        <time>2013-08-04T09:39:30Z</time>
      </trkpt>
      <trkpt lat="49.91371" lon="1.88711">
        <ele>95.5</ele>
        <time>2013-08-04T09:39:42Z</time>
      </trkpt>
      <trkpt lat="49.9139" lon="1.88685">
        <ele>95.2</ele>
        <time>2013-08-04T09:39:52Z</time>
      </trkpt>
      <trkpt lat="49.9139" lon="1.88685">
        <ele>95.2</ele>
        <time>2013-08-04T09:40:33Z</time>
      </trkpt>
      <trkpt lat="49.91397" lon="1.88672">
        <ele>95.4</ele>
        <time>2013-08-04T09:40:41Z</time>
      </trkpt>
      <trkpt lat="49.9141" lon="1.88666">
        <ele>91.6</ele>
        <time>2013-08-04T09:40:56Z</time>
      </trkpt>
      <trkpt lat="49.91422" lon="1.88655">
        <ele>87.5</ele>
        <time>2013-08-04T09:41:10Z</time>
      </trkpt>
      <trkpt lat="49.91436" lon="1.88651">
        <ele>84.1</ele>
        <time>2013-08-04T09:41:26Z</time>
      </trkpt>
      <trkpt lat="49.91449" lon="1.88643">
        <ele>82.2</ele>
        <time>2013-08-04T09:41:37Z</time>
      </trkpt>
      <trkpt lat="49.91463" lon="1.88641">
        <ele>86.4</ele>
        <time>2013-08-04T09:41:56Z</time>
      </trkpt>
      <trkpt lat="49.91476" lon="1.88634">
        <ele>88.5</ele>
        <time>2013-08-04T09:42:13Z</time>
      </trkpt>
      <trkpt lat="49.91489" lon="1.88629">
        <ele>89.1</ele>
        <time>2013-08-04T09:42:28Z</time>
      </trkpt>
      <trkpt lat="49.91495" lon="1.88609">
        <ele>89.6</ele>
        <time>2013-08-04T09:42:39Z</time>
      </trkpt>
      <trkpt lat="49.91495" lon="1.88587">
        <ele>90.1</ele>
        <time>2013-08-04T09:42:49Z</time>
      </trkpt>
      <trkpt lat="49.91499" lon="1.88566">
        <ele>90.7</ele>
        <time>2013-08-04T09:43:02Z</time>
      </trkpt>
      <trkpt lat="49.91504" lon="1.88546">
        <ele>91.7</ele>
        <time>2013-08-04T09:43:13Z</time>
      </trkpt>
      <trkpt lat="49.91511" lon="1.88527">
        <ele>93.9</ele>
        <time>2013-08-04T09:43:26Z</time>
      </trkpt>
      <trkpt lat="49.91517" lon="1.88507">
        <ele>96.1</ele>
        <time>2013-08-04T09:43:39Z</time>
      </trkpt>
      <trkpt lat="49.91526" lon="1.88491">
        <ele>97</ele>
        <time>2013-08-04T09:43:49Z</time>
      </trkpt>
      <trkpt lat="49.91537" lon="1.88476">
        <ele>97</ele>
        <time>2013-08-04T09:44:01Z</time>
      </trkpt>
      <trkpt lat="49.91544" lon="1.88458">
        <ele>97</ele>
        <time>2013-08-04T09:44:11Z</time>
      </trkpt>
      <trkpt lat="49.91554" lon="1.88443">
        <ele>94.3</ele>
        <time>2013-08-04T09:44:23Z</time>
      </trkpt>
      <trkpt lat="49.9158" lon="1.8844">
        <ele>92.6</ele>
        <time>2013-08-04T09:44:33Z</time>
      </trkpt>
      <trkpt lat="49.9158" lon="1.8844">
        <ele>92.6</ele>
        <time>2013-08-04T09:45:17Z</time>
      </trkpt>
      <trkpt lat="49.91592" lon="1.88441">
        <ele>92.8</ele>
        <time>2013-08-04T09:45:19Z</time>
      </trkpt>
      <trkpt lat="49.91606" lon="1.88444">
        <ele>94.3</ele>
        <time>2013-08-04T09:45:31Z</time>
      </trkpt>
      <trkpt lat="49.9162" lon="1.88451">
        <ele>95.6</ele>
        <time>2013-08-04T09:45:42Z</time>
      </trkpt>
      <trkpt lat="49.91631" lon="1.88463">
        <ele>98</ele>
        <time>2013-08-04T09:45:51Z</time>
      </trkpt>
      <trkpt lat="49.91644" lon="1.88474">
        <ele>99</ele>
        <time>2013-08-04T09:46:00Z</time>
      </trkpt>
      <trkpt lat="49.91655" lon="1.88488">
        <ele>99</ele>
        <time>2013-08-04T09:46:09Z</time>
      </trkpt>
      <trkpt lat="49.91664" lon="1.88505">
        <ele>99</ele>
        <time>2013-08-04T09:46:17Z</time>
      </trkpt>
      <trkpt lat="49.91672" lon="1.88522">
        <ele>104.2</ele>
        <time>2013-08-04T09:46:25Z</time>
      </trkpt>
      <trkpt lat="49.91684" lon="1.88536">
        <ele>109.2</ele>
        <time>2013-08-04T09:46:38Z</time>
      </trkpt>
      <trkpt lat="49.91694" lon="1.88552">
        <ele>107.6</ele>
        <time>2013-08-04T09:46:48Z</time>
      </trkpt>
      <trkpt lat="49.91699" lon="1.88572">
        <ele>112</ele>
        <time>2013-08-04T09:46:56Z</time>
      </trkpt>
      <trkpt lat="49.91707" lon="1.88591">
        <ele>111.5</ele>
        <time>2013-08-04T09:47:04Z</time>
      </trkpt>
      <trkpt lat="49.91716" lon="1.88608">
        <ele>110.7</ele>
        <time>2013-08-04T09:47:15Z</time>
      </trkpt>
      <trkpt lat="49.91728" lon="1.8862">
        <ele>109</ele>
        <time>2013-08-04T09:47:35Z</time>
      </trkpt>
      <trkpt lat="49.9174" lon="1.88632">
        <ele>107.7</ele>
        <time>2013-08-04T09:47:47Z</time>
      </trkpt>
      <trkpt lat="49.91754" lon="1.88634">
        <ele>102</ele>
        <time>2013-08-04T09:47:59Z</time>
      </trkpt>
      <trkpt lat="49.91766" lon="1.88647">
        <ele>106</ele>
        <time>2013-08-04T09:48:10Z</time>
      </trkpt>
      <trkpt lat="49.91776" lon="1.88645">
        <ele>105.1</ele>
        <time>2013-08-04T09:48:17Z</time>
      </trkpt>
      <trkpt lat="49.91787" lon="1.88658">
        <ele>103.8</ele>
        <time>2013-08-04T09:48:28Z</time>
      </trkpt>
      <trkpt lat="49.918" lon="1.88668">
        <ele>102.4</ele>
        <time>2013-08-04T09:48:39Z</time>
      </trkpt>
      <trkpt lat="49.91812" lon="1.88678">
        <ele>103</ele>
        <time>2013-08-04T09:48:48Z</time>
      </trkpt>
      <trkpt lat="49.91822" lon="1.88694">
        <ele>107.2</ele>
        <time>2013-08-04T09:48:57Z</time>
      </trkpt>
      <trkpt lat="49.91829" lon="1.88712">
        <ele>109.3</ele>
        <time>2013-08-04T09:49:03Z</time>
      </trkpt>
      <trkpt lat="49.91838" lon="1.88729">
        <ele>111</ele>
        <time>2013-08-04T09:49:14Z</time>
      </trkpt>
      <trkpt lat="49.9185" lon="1.88739">
        <ele>111</ele>
        <time>2013-08-04T09:49:25Z</time>
      </trkpt>
      <trkpt lat="49.91861" lon="1.88753">
        <ele>111</ele>
        <time>2013-08-04T09:49:36Z</time>
      </trkpt>
      <trkpt lat="49.91871" lon="1.8877">
        <ele>111</ele>
        <time>2013-08-04T09:49:48Z</time>
      </trkpt>
      <trkpt lat="49.91878" lon="1.88789">
        <ele>112.3</ele>
        <time>2013-08-04T09:49:58Z</time>
      </trkpt>
      <trkpt lat="49.91889" lon="1.88804">
        <ele>114.2</ele>
        <time>2013-08-04T09:50:09Z</time>
      </trkpt>
      <trkpt lat="49.91897" lon="1.88822">
        <ele>114.3</ele>
        <time>2013-08-04T09:50:23Z</time>
      </trkpt>
      <trkpt lat="49.91904" lon="1.88841">
        <ele>113.7</ele>
        <time>2013-08-04T09:50:31Z</time>
      </trkpt>
      <trkpt lat="49.9191" lon="1.88861">
        <ele>113</ele>
        <time>2013-08-04T09:50:41Z</time>
      </trkpt>
      <trkpt lat="49.91919" lon="1.88878">
        <ele>112.3</ele>
        <time>2013-08-04T09:50:50Z</time>
      </trkpt>
      <trkpt lat="49.91925" lon="1.88897">
        <ele>111.6</ele>
        <time>2013-08-04T09:50:59Z</time>
      </trkpt>
      <trkpt lat="49.91938" lon="1.88905">
        <ele>110.8</ele>
        <time>2013-08-04T09:51:10Z</time>
      </trkpt>
      <trkpt lat="49.91952" lon="1.88913">
        <ele>110.1</ele>
        <time>2013-08-04T09:51:20Z</time>
      </trkpt>
      <trkpt lat="49.91966" lon="1.88922">
        <ele>111.2</ele>
        <time>2013-08-04T09:51:30Z</time>
      </trkpt>
      <trkpt lat="49.91979" lon="1.88929">
        <ele>112.3</ele>
        <time>2013-08-04T09:51:39Z</time>
      </trkpt>
      <trkpt lat="49.91989" lon="1.88942">
        <ele>113.9</ele>
        <time>2013-08-04T09:51:51Z</time>
      </trkpt>
      <trkpt lat="49.92002" lon="1.88951">
        <ele>115.2</ele>
        <time>2013-08-04T09:52:01Z</time>
      </trkpt>
      <trkpt lat="49.92015" lon="1.88958">
        <ele>116.9</ele>
        <time>2013-08-04T09:52:14Z</time>
      </trkpt>
      <trkpt lat="49.92035" lon="1.88969">
        <ele>114.4</ele>
        <time>2013-08-04T09:52:28Z</time>
      </trkpt>
      <trkpt lat="49.92035" lon="1.88969">
        <ele>114.4</ele>
        <time>2013-08-04T09:53:10Z</time>
      </trkpt>
      <trkpt lat="49.92049" lon="1.88985">
        <ele>116.3</ele>
        <time>2013-08-04T09:53:14Z</time>
      </trkpt>
      <trkpt lat="49.92058" lon="1.89001">
        <ele>114.7</ele>
        <time>2013-08-04T09:53:25Z</time>
      </trkpt>
      <trkpt lat="49.92069" lon="1.89014">
        <ele>109.7</ele>
        <time>2013-08-04T09:53:35Z</time>
      </trkpt>
      <trkpt lat="49.92081" lon="1.89026">
        <ele>111.9</ele>
        <time>2013-08-04T09:53:46Z</time>
      </trkpt>
      <trkpt lat="49.92087" lon="1.89045">
        <ele>114.5</ele>
        <time>2013-08-04T09:53:57Z</time>
      </trkpt>
      <trkpt lat="49.92099" lon="1.89058">
        <ele>115.9</ele>
        <time>2013-08-04T09:54:08Z</time>
      </trkpt>
      <trkpt lat="49.92112" lon="1.89062">
        <ele>116.2</ele>
        <time>2013-08-04T09:54:20Z</time>
      </trkpt>
      <trkpt lat="49.92123" lon="1.89075">
        <ele>114.5</ele>
        <time>2013-08-04T09:54:30Z</time>
      </trkpt>
      <trkpt lat="49.92134" lon="1.8909">
        <ele>115.7</ele>
        <time>2013-08-04T09:54:42Z</time>
      </trkpt>
      <trkpt lat="49.92146" lon="1.89111">
        <ele>110.1</ele>
        <time>2013-08-04T09:54:55Z</time>
      </trkpt>
      <trkpt lat="49.92158" lon="1.89119">
        <ele>106.9</ele>
        <time>2013-08-04T09:55:13Z</time>
      </trkpt>
      <trkpt lat="49.92173" lon="1.89124">
        <ele>106.5</ele>
        <time>2013-08-04T09:55:30Z</time>
      </trkpt>
      <trkpt lat="49.92181" lon="1.89145">
        <ele>110.5</ele>
        <time>2013-08-04T09:55:38Z</time>
      </trkpt>
      <trkpt lat="49.92188" lon="1.89164">
        <ele>111.6</ele>
        <time>2013-08-04T09:55:46Z</time>
      </trkpt>
      <trkpt lat="49.92197" lon="1.89181">
        <ele>110.8</ele>
        <time>2013-08-04T09:55:56Z</time>
      </trkpt>
      <trkpt lat="49.92209" lon="1.8919">
        <ele>109.9</ele>
        <time>2013-08-04T09:56:08Z</time>
      </trkpt>
      <trkpt lat="49.9222" lon="1.89203">
        <ele>109.1</ele>
        <time>2013-08-04T09:56:19Z</time>
      </trkpt>
      <trkpt lat="49.92229" lon="1.89222">
        <ele>110.2</ele>
        <time>2013-08-04T09:56:29Z</time>
      </trkpt>
      <trkpt lat="49.92236" lon="1.89242">
        <ele>111.8</ele>
        <time>2013-08-04T09:56:41Z</time>
      </trkpt>
      <trkpt lat="49.92248" lon="1.89254">
        <ele>109.8</ele>
        <time>2013-08-04T09:56:54Z</time>
      </trkpt>
      <trkpt lat="49.92261" lon="1.89267">
        <ele>107.8</ele>
        <time>2013-08-04T09:57:06Z</time>
      </trkpt>
      <trkpt lat="49.92267" lon="1.89286">
        <ele>107.1</ele>
        <time>2013-08-04T09:57:16Z</time>
      </trkpt>
      <trkpt lat="49.92276" lon="1.89305">
        <ele>106.2</ele>
        <time>2013-08-04T09:57:27Z</time>
      </trkpt>
      <trkpt lat="49.92283" lon="1.89324">
        <ele>105.2</ele>
        <time>2013-08-04T09:57:40Z</time>
      </trkpt>
      <trkpt lat="49.92291" lon="1.89342">
        <ele>104.5</ele>
        <time>2013-08-04T09:57:49Z</time>
      </trkpt>
      <trkpt lat="49.92301" lon="1.89359">
        <ele>106</ele>
        <time>2013-08-04T09:58:00Z</time>
      </trkpt>
      <trkpt lat="49.92311" lon="1.89375">
        <ele>106.6</ele>
        <time>2013-08-04T09:58:10Z</time>
      </trkpt>
      <trkpt lat="49.92322" lon="1.8939">
        <ele>103</ele>
        <time>2013-08-04T09:58:23Z</time>
      </trkpt>
      <trkpt lat="49.92331" lon="1.89411">
        <ele>97</ele>
        <time>2013-08-04T09:58:35Z</time>
      </trkpt>
      <trkpt lat="49.92342" lon="1.89426">
        <ele>97</ele>
        <time>2013-08-04T09:58:51Z</time>
      </trkpt>
      <trkpt lat="49.9235" lon="1.89442">
        <ele>98.6</ele>
        <time>2013-08-04T09:59:05Z</time>
      </trkpt>
      <trkpt lat="49.9236" lon="1.89458">
        <ele>92.7</ele>
        <time>2013-08-04T09:59:26Z</time>
      </trkpt>
      <trkpt lat="49.92375" lon="1.89484">
        <ele>92.9</ele>
        <time>2013-08-04T10:00:06Z</time>
      </trkpt>
      <trkpt lat="49.92375" lon="1.89484">
        <ele>92.9</ele>
        <time>2013-08-04T10:00:53Z</time>
      </trkpt>
      <trkpt lat="49.92383" lon="1.89491">
        <ele>92.2</ele>
        <time>2013-08-04T10:01:02Z</time>
      </trkpt>
      <trkpt lat="49.92392" lon="1.8951">
        <ele>92.7</ele>
        <time>2013-08-04T10:01:13Z</time>
      </trkpt>
      <trkpt lat="49.92399" lon="1.89528">
        <ele>93.1</ele>
        <time>2013-08-04T10:01:22Z</time>
      </trkpt>
      <trkpt lat="49.92408" lon="1.89544">
        <ele>93.8</ele>
        <time>2013-08-04T10:01:37Z</time>
      </trkpt>
      <trkpt lat="49.9242" lon="1.89559">
        <ele>94.2</ele>
        <time>2013-08-04T10:01:46Z</time>
      </trkpt>
      <trkpt lat="49.92427" lon="1.89577">
        <ele>94.6</ele>
        <time>2013-08-04T10:01:55Z</time>
      </trkpt>
      <trkpt lat="49.92436" lon="1.89597">
        <ele>95</ele>
        <time>2013-08-04T10:02:03Z</time>
      </trkpt>
      <trkpt lat="49.92445" lon="1.89614">
        <ele>98.6</ele>
        <time>2013-08-04T10:02:11Z</time>
      </trkpt>
      <trkpt lat="49.92445" lon="1.89636">
        <ele>100.9</ele>
        <time>2013-08-04T10:02:23Z</time>
      </trkpt>
      <trkpt lat="49.92454" lon="1.89652">
        <ele>101.8</ele>
        <time>2013-08-04T10:02:32Z</time>
      </trkpt>
      <trkpt lat="49.92464" lon="1.89668">
        <ele>102.7</ele>
        <time>2013-08-04T10:02:45Z</time>
      </trkpt>
      <trkpt lat="49.92464" lon="1.89676">
        <ele>101.1</ele>
        <time>2013-08-04T10:02:58Z</time>
      </trkpt>
      <trkpt lat="49.92457" lon="1.89681">
        <ele>94.7</ele>
        <time>2013-08-04T10:03:06Z</time>
      </trkpt>
      <trkpt lat="49.92469" lon="1.89695">
        <ele>91</ele>
        <time>2013-08-04T10:03:13Z</time>
      </trkpt>
      <trkpt lat="49.92482" lon="1.89705">
        <ele>88.9</ele>
        <time>2013-08-04T10:03:20Z</time>
      </trkpt>
      <trkpt lat="49.92495" lon="1.89714">
        <ele>87</ele>
        <time>2013-08-04T10:03:29Z</time>
      </trkpt>
      <trkpt lat="49.92507" lon="1.89729">
        <ele>87</ele>
        <time>2013-08-04T10:03:38Z</time>
      </trkpt>
      <trkpt lat="49.92516" lon="1.89748">
        <ele>87</ele>
        <time>2013-08-04T10:03:50Z</time>
      </trkpt>
      <trkpt lat="49.92527" lon="1.89762">
        <ele>87.2</ele>
        <time>2013-08-04T10:04:02Z</time>
      </trkpt>
      <trkpt lat="49.92539" lon="1.89773">
        <ele>87.7</ele>
        <time>2013-08-04T10:04:07Z</time>
      </trkpt>
      <trkpt lat="49.9255" lon="1.89788">
        <ele>88.7</ele>
        <time>2013-08-04T10:04:14Z</time>
      </trkpt>
      <trkpt lat="49.92562" lon="1.89802">
        <ele>90.6</ele>
        <time>2013-08-04T10:04:25Z</time>
      </trkpt>
      <trkpt lat="49.92574" lon="1.89815">
        <ele>92.6</ele>
        <time>2013-08-04T10:04:36Z</time>
      </trkpt>
      <trkpt lat="49.92583" lon="1.89832">
        <ele>94.6</ele>
        <time>2013-08-04T10:04:47Z</time>
      </trkpt>
      <trkpt lat="49.92594" lon="1.89844">
        <ele>96.5</ele>
        <time>2013-08-04T10:04:56Z</time>
      </trkpt>
      <trkpt lat="49.92605" lon="1.89858">
        <ele>98.9</ele>
        <time>2013-08-04T10:05:06Z</time>
      </trkpt>
      <trkpt lat="49.92616" lon="1.89872">
        <ele>101.2</ele>
        <time>2013-08-04T10:05:17Z</time>
      </trkpt>
      <trkpt lat="49.92627" lon="1.89887">
        <ele>102.3</ele>
        <time>2013-08-04T10:05:27Z</time>
      </trkpt>
      <trkpt lat="49.92638" lon="1.899">
        <ele>103.4</ele>
        <time>2013-08-04T10:05:37Z</time>
      </trkpt>
      <trkpt lat="49.92648" lon="1.89917">
        <ele>102.5</ele>
        <time>2013-08-04T10:05:48Z</time>
      </trkpt>
      <trkpt lat="49.92661" lon="1.89929">
        <ele>100.2</ele>
        <time>2013-08-04T10:05:56Z</time>
      </trkpt>
      <trkpt lat="49.92661" lon="1.89951">
        <ele>96.5</ele>
        <time>2013-08-04T10:06:07Z</time>
      </trkpt>
      <trkpt lat="49.92656" lon="1.89951">
        <ele>94.5</ele>
        <time>2013-08-04T10:06:12Z</time>
      </trkpt>
      <trkpt lat="49.92654" lon="1.89931">
        <ele>88.5</ele>
        <time>2013-08-04T10:06:23Z</time>
      </trkpt>
      <trkpt lat="49.92642" lon="1.89916">
        <ele>84.2</ele>
        <time>2013-08-04T10:06:31Z</time>
      </trkpt>
      <trkpt lat="49.92633" lon="1.899">
        <ele>81.1</ele>
        <time>2013-08-04T10:06:40Z</time>
      </trkpt>
      <trkpt lat="49.92627" lon="1.8988">
        <ele>75.9</ele>
        <time>2013-08-04T10:06:59Z</time>
      </trkpt>
      <trkpt lat="49.92614" lon="1.89866">
        <ele>75.6</ele>
        <time>2013-08-04T10:07:05Z</time>
      </trkpt>
      <trkpt lat="49.9261" lon="1.89854">
        <ele>75.4</ele>
        <time>2013-08-04T10:07:11Z</time>
      </trkpt>
      <trkpt lat="49.9261" lon="1.89832">
        <ele>75.2</ele>
        <time>2013-08-04T10:07:28Z</time>
      </trkpt>
      <trkpt lat="49.92604" lon="1.89812">
        <ele>75.8</ele>
        <time>2013-08-04T10:07:40Z</time>
      </trkpt>
      <trkpt lat="49.92596" lon="1.89795">
        <ele>77.2</ele>
        <time>2013-08-04T10:07:51Z</time>
      </trkpt>
      <trkpt lat="49.92588" lon="1.89779">
        <ele>77.8</ele>
        <time>2013-08-04T10:08:03Z</time>
      </trkpt>
      <trkpt lat="49.92581" lon="1.89758">
        <ele>75</ele>
        <time>2013-08-04T10:08:15Z</time>
      </trkpt>
      <trkpt lat="49.92575" lon="1.89738">
        <ele>73.8</ele>
        <time>2013-08-04T10:08:27Z</time>
      </trkpt>
      <trkpt lat="49.92569" lon="1.89718">
        <ele>73.5</ele>
        <time>2013-08-04T10:08:35Z</time>
      </trkpt>
      <trkpt lat="49.92572" lon="1.89706">
        <ele>73.5</ele>
        <time>2013-08-04T10:08:48Z</time>
      </trkpt>
      <trkpt lat="49.92561" lon="1.89691">
        <ele>75.1</ele>
        <time>2013-08-04T10:08:57Z</time>
      </trkpt>
      <trkpt lat="49.92554" lon="1.89673">
        <ele>76.9</ele>
        <time>2013-08-04T10:09:07Z</time>
      </trkpt>
      <trkpt lat="49.92547" lon="1.89654">
        <ele>78.8</ele>
        <time>2013-08-04T10:09:18Z</time>
      </trkpt>
      <trkpt lat="49.92541" lon="1.89635">
        <ele>76.1</ele>
        <time>2013-08-04T10:09:25Z</time>
      </trkpt>
      <trkpt lat="49.92536" lon="1.89615">
        <ele>77.1</ele>
        <time>2013-08-04T10:09:37Z</time>
      </trkpt>
      <trkpt lat="49.9253" lon="1.89596">
        <ele>78.2</ele>
        <time>2013-08-04T10:09:51Z</time>
      </trkpt>
      <trkpt lat="49.92525" lon="1.89575">
        <ele>79.2</ele>
        <time>2013-08-04T10:10:03Z</time>
      </trkpt>
      <trkpt lat="49.92522" lon="1.89553">
        <ele>80.2</ele>
        <time>2013-08-04T10:10:15Z</time>
      </trkpt>
      <trkpt lat="49.92517" lon="1.89532">
        <ele>81</ele>
        <time>2013-08-04T10:10:24Z</time>
      </trkpt>
      <trkpt lat="49.92511" lon="1.89512">
        <ele>78.6</ele>
        <time>2013-08-04T10:10:37Z</time>
      </trkpt>
      <trkpt lat="49.92505" lon="1.89493">
        <ele>78.7</ele>
        <time>2013-08-04T10:10:48Z</time>
      </trkpt>
      <trkpt lat="49.92498" lon="1.89474">
        <ele>79.6</ele>
        <time>2013-08-04T10:10:59Z</time>
      </trkpt>
      <trkpt lat="49.92494" lon="1.89453">
        <ele>80.5</ele>
        <time>2013-08-04T10:11:10Z</time>
      </trkpt>
      <trkpt lat="49.92486" lon="1.89434">
        <ele>80.5</ele>
        <time>2013-08-04T10:11:20Z</time>
      </trkpt>
      <trkpt lat="49.92482" lon="1.89414">
        <ele>79.2</ele>
        <time>2013-08-04T10:11:32Z</time>
      </trkpt>
      <trkpt lat="49.92474" lon="1.89396">
        <ele>78.1</ele>
        <time>2013-08-04T10:11:44Z</time>
      </trkpt>
      <trkpt lat="49.92467" lon="1.89376">
        <ele>79.4</ele>
        <time>2013-08-04T10:11:56Z</time>
      </trkpt>
      <trkpt lat="49.92463" lon="1.89354">
        <ele>80.5</ele>
        <time>2013-08-04T10:12:06Z</time>
      </trkpt>
      <trkpt lat="49.92454" lon="1.89338">
        <ele>81.5</ele>
        <time>2013-08-04T10:12:17Z</time>
      </trkpt>
      <trkpt lat="49.9245" lon="1.89316">
        <ele>82.5</ele>
        <time>2013-08-04T10:12:33Z</time>
      </trkpt>
      <trkpt lat="49.9244" lon="1.893">
        <ele>83.2</ele>
        <time>2013-08-04T10:12:44Z</time>
      </trkpt>
      <trkpt lat="49.92432" lon="1.8928">
        <ele>84</ele>
        <time>2013-08-04T10:12:56Z</time>
      </trkpt>
      <trkpt lat="49.92425" lon="1.89262">
        <ele>84.5</ele>
        <time>2013-08-04T10:13:03Z</time>
      </trkpt>
      <trkpt lat="49.92417" lon="1.89243">
        <ele>85.2</ele>
        <time>2013-08-04T10:13:13Z</time>
      </trkpt>
      <trkpt lat="49.92406" lon="1.89228">
        <ele>86</ele>
        <time>2013-08-04T10:13:24Z</time>
      </trkpt>
      <trkpt lat="49.92401" lon="1.89209">
        <ele>86.9</ele>
        <time>2013-08-04T10:13:38Z</time>
      </trkpt>
      <trkpt lat="49.92393" lon="1.8919">
        <ele>90.5</ele>
        <time>2013-08-04T10:13:53Z</time>
      </trkpt>
      <trkpt lat="49.92382" lon="1.89173">
        <ele>91.3</ele>
        <time>2013-08-04T10:14:06Z</time>
      </trkpt>
      <trkpt lat="49.92374" lon="1.89154">
        <ele>92</ele>
        <time>2013-08-04T10:14:18Z</time>
      </trkpt>
      <trkpt lat="49.92369" lon="1.89134">
        <ele>92.6</ele>
        <time>2013-08-04T10:14:28Z</time>
      </trkpt>
      <trkpt lat="49.92362" lon="1.89115">
        <ele>95.5</ele>
        <time>2013-08-04T10:14:40Z</time>
      </trkpt>
      <trkpt lat="49.9236" lon="1.89094">
        <ele>99</ele>
        <time>2013-08-04T10:14:57Z</time>
      </trkpt>
      <trkpt lat="49.92352" lon="1.89077">
        <ele>97.7</ele>
        <time>2013-08-04T10:15:07Z</time>
      </trkpt>
      <trkpt lat="49.92346" lon="1.89056">
        <ele>94.5</ele>
        <time>2013-08-04T10:15:19Z</time>
      </trkpt>
      <trkpt lat="49.92337" lon="1.89041">
        <ele>89.2</ele>
        <time>2013-08-04T10:15:29Z</time>
      </trkpt>
      <trkpt lat="49.92327" lon="1.89024">
        <ele>83.4</ele>
        <time>2013-08-04T10:15:42Z</time>
      </trkpt>
      <trkpt lat="49.92317" lon="1.89008">
        <ele>83.3</ele>
        <time>2013-08-04T10:15:52Z</time>
      </trkpt>
      <trkpt lat="49.92309" lon="1.88987">
        <ele>83.8</ele>
        <time>2013-08-04T10:16:06Z</time>
      </trkpt>
      <trkpt lat="49.92305" lon="1.88967">
        <ele>83.8</ele>
        <time>2013-08-04T10:16:17Z</time>
      </trkpt>
      <trkpt lat="49.92298" lon="1.88948">
        <ele>83.2</ele>
        <time>2013-08-04T10:16:26Z</time>
      </trkpt>
      <trkpt lat="49.92297" lon="1.88927">
        <ele>86.6</ele>
        <time>2013-08-04T10:16:48Z</time>
      </trkpt>
      <trkpt lat="49.92286" lon="1.88912">
        <ele>88.5</ele>
        <time>2013-08-04T10:16:59Z</time>
      </trkpt>
      <trkpt lat="49.92278" lon="1.88895">
        <ele>86.4</ele>
        <time>2013-08-04T10:17:11Z</time>
      </trkpt>
      <trkpt lat="49.9227" lon="1.88876">
        <ele>84.2</ele>
        <time>2013-08-04T10:17:23Z</time>
      </trkpt>
      <trkpt lat="49.92258" lon="1.88863">
        <ele>82.6</ele>
        <time>2013-08-04T10:17:31Z</time>
      </trkpt>
      <trkpt lat="49.92249" lon="1.88845">
        <ele>81.8</ele>
        <time>2013-08-04T10:17:41Z</time>
      </trkpt>
      <trkpt lat="49.92243" lon="1.88825">
        <ele>82.1</ele>
        <time>2013-08-04T10:17:53Z</time>
      </trkpt>
      <trkpt lat="49.92236" lon="1.88806">
        <ele>83.5</ele>
        <time>2013-08-04T10:18:03Z</time>
      </trkpt>
      <trkpt lat="49.92228" lon="1.88788">
        <ele>84.7</ele>
        <time>2013-08-04T10:18:12Z</time>
      </trkpt>
      <trkpt lat="49.92222" lon="1.88768">
        <ele>87.9</ele>
        <time>2013-08-04T10:18:22Z</time>
      </trkpt>
      <trkpt lat="49.92217" lon="1.88746">
        <ele>87.4</ele>
        <time>2013-08-04T10:18:31Z</time>
      </trkpt>
      <trkpt lat="49.92213" lon="1.88726">
        <ele>84</ele>
        <time>2013-08-04T10:18:43Z</time>
      </trkpt>
      <trkpt lat="49.92211" lon="1.88705">
        <ele>81</ele>
        <time>2013-08-04T10:18:53Z</time>
      </trkpt>
      <trkpt lat="49.92205" lon="1.88681">
        <ele>81.7</ele>
        <time>2013-08-04T10:19:03Z</time>
      </trkpt>
      <trkpt lat="49.92205" lon="1.88659">
        <ele>82.6</ele>
        <time>2013-08-04T10:19:15Z</time>
      </trkpt>
      <trkpt lat="49.92207" lon="1.88638">
        <ele>83.3</ele>
        <time>2013-08-04T10:19:25Z</time>
      </trkpt>
      <trkpt lat="49.92212" lon="1.88618">
        <ele>83.3</ele>
        <time>2013-08-04T10:19:38Z</time>
      </trkpt>
      <trkpt lat="49.92212" lon="1.88596">
        <ele>81.3</ele>
        <time>2013-08-04T10:19:50Z</time>
      </trkpt>
      <trkpt lat="49.92213" lon="1.88575">
        <ele>79.5</ele>
        <time>2013-08-04T10:20:01Z</time>
      </trkpt>
      <trkpt lat="49.92209" lon="1.88554">
        <ele>77.3</ele>
        <time>2013-08-04T10:20:13Z</time>
      </trkpt>
      <trkpt lat="49.92207" lon="1.88532">
        <ele>74.7</ele>
        <time>2013-08-04T10:20:25Z</time>
      </trkpt>
      <trkpt lat="49.92206" lon="1.88511">
        <ele>72.4</ele>
        <time>2013-08-04T10:20:34Z</time>
      </trkpt>
      <trkpt lat="49.92204" lon="1.8849">
        <ele>69.5</ele>
        <time>2013-08-04T10:20:43Z</time>
      </trkpt>
      <trkpt lat="49.92202" lon="1.88469">
        <ele>68.5</ele>
        <time>2013-08-04T10:20:54Z</time>
      </trkpt>
      <trkpt lat="49.92198" lon="1.88449">
        <ele>67.4</ele>
        <time>2013-08-04T10:21:06Z</time>
      </trkpt>
      <trkpt lat="49.92194" lon="1.88429">
        <ele>65.3</ele>
        <time>2013-08-04T10:21:19Z</time>
      </trkpt>
      <trkpt lat="49.92185" lon="1.88411">
        <ele>61.8</ele>
        <time>2013-08-04T10:21:30Z</time>
      </trkpt>
      <trkpt lat="49.92175" lon="1.88395">
        <ele>59</ele>
        <time>2013-08-04T10:21:41Z</time>
      </trkpt>
      <trkpt lat="49.92179" lon="1.88374">
        <ele>62.4</ele>
        <time>2013-08-04T10:21:54Z</time>
      </trkpt>
      <trkpt lat="49.92193" lon="1.88364">
        <ele>65.7</ele>
        <time>2013-08-04T10:22:07Z</time>
      </trkpt>
      <trkpt lat="49.92205" lon="1.88352">
        <ele>70</ele>
        <time>2013-08-04T10:22:14Z</time>
      </trkpt>
      <trkpt lat="49.92215" lon="1.88338">
        <ele>68.2</ele>
        <time>2013-08-04T10:22:21Z</time>
      </trkpt>
      <trkpt lat="49.92226" lon="1.88326">
        <ele>66.3</ele>
        <time>2013-08-04T10:22:29Z</time>
      </trkpt>
      <trkpt lat="49.92233" lon="1.88307">
        <ele>66.8</ele>
        <time>2013-08-04T10:22:43Z</time>
      </trkpt>
      <trkpt lat="49.92244" lon="1.88293">
        <ele>65</ele>
        <time>2013-08-04T10:23:06Z</time>
      </trkpt>
    </trkseg>
  </trk>
</gpx>